NOAA Web Site Link Tides and Currents Home Page Transparent placeholder image

PORTS® Data Listing: 8531680 Sandy Hook, NJ

CO-OPS RAW PORTS DATA

************************      PRELIMINARY DATA      ************************** 

     THIS RAW DATA HAS NOT BEEN SUBJECT TO THE NATIONAL OCEAN SERVICE'S        
     QUALITY CONTROL OR QUALITY ASSURANCE PROCEDURES AND DOES NOT MEET         
     THE CRITERIA AND STANDARDS OF OFFICIAL NATIONAL OCEAN SERVICE             
     DATA.  IT IS RELEASED FOR LIMITED PUBLIC USE AS PRELIMINARY DATA TO       
     BE USED ONLY WITH APPROPRIATE CAUTION.                                    

************************      PRELIMINARY DATA      ************************** 


       CD   -   Calendar date
       T    -   Time
       TZ   -   Timezone
       PW   -   Predicted water level (feet above MLLW)
       OW   -   Observed water level (feet above MLLW)
       WS   -   Wind speed (knots)
       WD   -   Wind direction (degrees true)
       WG   -   Wind gust (knots)
       AT   -   Air temperature (degrees farenheit)
       WT   -   Water temperature (degrees farenheit)
       AP   -   Air pressure (millibars)
       SA   -   Salinty (PSU - Practical Salinity Units)
       SG   -   Specific gravity
       RH   -   Relative humidity
       AG   -   Air gap (feet)
       VI   -   Visibility (nautical miles)

       ** NOTE **
       A variable that has its data fields filled with "9"s, indicates that
       data was not collected for that sample period.
       **********


STATION NAME: Sandy Hook (8531680)
****************************************************************************************************
    CD       T    TZ    PW     OW    WS   WD   WG    AT    WT    AP    SA    SG     RH    AG   VI
****************************************************************************************************
2019/07/16 01:36 EDT    0.23   0.69    6  256    8  75.6  80.4 1017.8 -9.9 -9.999 -99.9 -99.99 -9.99
2019/07/16 01:42 EDT    0.18   0.61    7  287   10  75.6  80.4 1017.9 -9.9 -9.999 -99.9 -99.99 -9.99
2019/07/16 01:48 EDT    0.13   0.58    7  286   10  75.4  80.4 1018.0 -9.9 -9.999 -99.9 -99.99 -9.99
2019/07/16 01:54 EDT    0.09   0.51    6  279    9  75.4  80.4 1018.0 -9.9 -9.999 -99.9 -99.99 -9.99
2019/07/16 02:00 EDT    0.07   0.46    8  281   10  75.2  80.4 1017.9 -9.9 -9.999 -99.9 -99.99 -9.99
2019/07/16 02:06 EDT    0.04   0.43    7  273   10  75.0  80.4 1018.0 -9.9 -9.999 -99.9 -99.99 -9.99
2019/07/16 02:12 EDT    0.03   0.38    7  272    9  75.0  80.4 1017.8 -9.9 -9.999 -99.9 -99.99 -9.99
2019/07/16 02:18 EDT    0.03   0.36    7  274   10  74.8  80.4 1017.8 -9.9 -9.999 -99.9 -99.99 -9.99
2019/07/16 02:24 EDT    0.03   0.35    7  274   10  74.8  80.4 1017.8 -9.9 -9.999 -99.9 -99.99 -9.99
2019/07/16 02:30 EDT    0.04   0.35    7  277   10  74.7  80.4 1017.8 -9.9 -9.999 -99.9 -99.99 -9.99
2019/07/16 02:36 EDT    0.06   0.35    7  275   10  74.7  80.4 1017.7 -9.9 -9.999 -99.9 -99.99 -9.99
2019/07/16 02:42 EDT    0.08   0.37    6  275   10  74.5  80.4 1017.6 -9.9 -9.999 -99.9 -99.99 -9.99
2019/07/16 02:48 EDT    0.12   0.38    6  277    9  74.7  80.6 1017.6 -9.9 -9.999 -99.9 -99.99 -9.99
2019/07/16 02:54 EDT    0.16   0.43    7  274   10  74.5  80.6 1017.6 -9.9 -9.999 -99.9 -99.99 -9.99
2019/07/16 03:00 EDT    0.21   0.49    7  277   10  74.3  80.6 1017.6 -9.9 -9.999 -99.9 -99.99 -9.99
2019/07/16 03:06 EDT    0.26   0.54    5  276    9  74.3  80.6 1017.5 -9.9 -9.999 -99.9 -99.99 -9.99
2019/07/16 03:12 EDT    0.32   0.58    6  273    8  74.3  80.6 1017.5 -9.9 -9.999 -99.9 -99.99 -9.99
2019/07/16 03:18 EDT    0.39   0.66    6  276    8  74.3  80.6 1017.4 -9.9 -9.999 -99.9 -99.99 -9.99
2019/07/16 03:24 EDT    0.46   0.74    6  275    8  74.1  80.6 1017.4 -9.9 -9.999 -99.9 -99.99 -9.99
2019/07/16 03:30 EDT    0.54   0.81    6  278    8  74.1  80.4 1017.4 -9.9 -9.999 -99.9 -99.99 -9.99
2019/07/16 03:36 EDT    0.63   0.89    6  282    8  73.9  80.4 1017.5 -9.9 -9.999 -99.9 -99.99 -9.99
2019/07/16 03:42 EDT    0.71   0.97    5  281    8  73.9  80.4 1017.4 -9.9 -9.999 -99.9 -99.99 -9.99
2019/07/16 03:48 EDT    0.81   1.06    5  283    8  74.1  80.4 1017.4 -9.9 -9.999 -99.9 -99.99 -9.99
2019/07/16 03:54 EDT    0.90   1.16    6  284    8  73.9  80.4 1017.4 -9.9 -9.999 -99.9 -99.99 -9.99
2019/07/16 04:00 EDT    1.00   1.27    6  278    8  73.9  80.4 1017.4 -9.9 -9.999 -99.9 -99.99 -9.99
2019/07/16 04:06 EDT    1.10   1.38    5  282    9  73.9  80.4 1017.5 -9.9 -9.999 -99.9 -99.99 -9.99
2019/07/16 04:12 EDT    1.21   1.49    5  286    8  73.9  80.4 1017.5 -9.9 -9.999 -99.9 -99.99 -9.99
2019/07/16 04:18 EDT    1.31   1.61    6  285    8  73.9  80.4 1017.5 -9.9 -9.999 -99.9 -99.99 -9.99
2019/07/16 04:24 EDT    1.42   1.72    8  296    9  73.9  80.2 1017.5 -9.9 -9.999 -99.9 -99.99 -9.99
2019/07/16 04:30 EDT    1.53   1.85    8  295    9  74.1  80.2 1017.6 -9.9 -9.999 -99.9 -99.99 -9.99
2019/07/16 04:36 EDT    1.64   1.96    6  290    8  74.3  80.2 1017.6 -9.9 -9.999 -99.9 -99.99 -9.99
2019/07/16 04:42 EDT    1.76   2.08    6  289    8  74.1  80.2 1017.7 -9.9 -9.999 -99.9 -99.99 -9.99
2019/07/16 04:48 EDT    1.87   2.18    4  275    7  74.1  80.1 1017.7 -9.9 -9.999 -99.9 -99.99 -9.99
2019/07/16 04:54 EDT    1.98   2.31    5  278    7  74.1  80.1 1017.7 -9.9 -9.999 -99.9 -99.99 -9.99
2019/07/16 05:00 EDT    2.10   2.42    4  274    8  73.8  80.1 1017.8 -9.9 -9.999 -99.9 -99.99 -9.99
2019/07/16 05:06 EDT    2.21   2.55    5  274    7  73.9  79.9 1017.8 -9.9 -9.999 -99.9 -99.99 -9.99
2019/07/16 05:12 EDT    2.32   2.66    6  280    8  73.8  79.9 1017.8 -9.9 -9.999 -99.9 -99.99 -9.99
2019/07/16 05:18 EDT    2.44   2.78    6  279    9  73.6  80.1 1017.8 -9.9 -9.999 -99.9 -99.99 -9.99
2019/07/16 05:24 EDT    2.55   2.89    5  274    7  73.6  79.9 1017.8 -9.9 -9.999 -99.9 -99.99 -9.99
2019/07/16 05:30 EDT    2.66   3.00    5  274    7  73.4  79.7 1017.8 -9.9 -9.999 -99.9 -99.99 -9.99
2019/07/16 05:36 EDT    2.77   3.12    5  277    7  73.2  79.3 1017.8 -9.9 -9.999 -99.9 -99.99 -9.99
2019/07/16 05:42 EDT    2.88   3.20    5  278    7  73.0  78.8 1017.9 -9.9 -9.999 -99.9 -99.99 -9.99
2019/07/16 05:48 EDT    2.99   3.31    6  272    7  73.0  78.8 1018.0 -9.9 -9.999 -99.9 -99.99 -9.99
2019/07/16 05:54 EDT    3.10   3.39    6  263    8  73.0  79.5 1018.0 -9.9 -9.999 -99.9 -99.99 -9.99
2019/07/16 06:00 EDT    3.21   3.50    7  260    9  72.9  79.5 1018.1 -9.9 -9.999 -99.9 -99.99 -9.99
2019/07/16 06:06 EDT    3.31   3.61    7  258    9  72.7  79.5 1018.2 -9.9 -9.999 -99.9 -99.99 -9.99
2019/07/16 06:12 EDT    3.42   3.72    6  264    8  72.7  79.5 1018.2 -9.9 -9.999 -99.9 -99.99 -9.99
2019/07/16 06:18 EDT    3.52   3.82    8  264    9  72.7  79.3 1018.3 -9.9 -9.999 -99.9 -99.99 -9.99
2019/07/16 06:24 EDT    3.62   3.93    6  266    9  72.7  79.3 1018.4 -9.9 -9.999 -99.9 -99.99 -9.99
2019/07/16 06:30 EDT    3.71   4.03    7  259    9  73.2  79.0 1018.4 -9.9 -9.999 -99.9 -99.99 -9.99
2019/07/16 06:36 EDT    3.80   4.11    8  258   11  73.0  77.7 1018.4 -9.9 -9.999 -99.9 -99.99 -9.99
2019/07/16 06:42 EDT    3.89   4.21    7  265   10  72.7  77.7 1018.4 -9.9 -9.999 -99.9 -99.99 -9.99
2019/07/16 06:48 EDT    3.98   4.28    7  273    8  72.9  78.8 1018.6 -9.9 -9.999 -99.9 -99.99 -9.99
2019/07/16 06:54 EDT    4.06   4.37    8  268    9  73.0  79.2 1018.6 -9.9 -9.999 -99.9 -99.99 -9.99
2019/07/16 07:00 EDT    4.14   4.45    6  272    9  73.0  79.2 1018.7 -9.9 -9.999 -99.9 -99.99 -9.99
2019/07/16 07:06 EDT    4.21   4.53    6  274    8  73.2  79.2 1018.8 -9.9 -9.999 -99.9 -99.99 -9.99
2019/07/16 07:12 EDT    4.28   4.59    6  264    8  73.6  79.2 1018.8 -9.9 -9.999 -99.9 -99.99 -9.99
2019/07/16 07:18 EDT    4.35   4.65    6  259    8  73.8  79.2 1018.8 -9.9 -9.999 -99.9 -99.99 -9.99
2019/07/16 07:24 EDT    4.40   4.73    5  262    7  73.8  79.0 1018.8 -9.9 -9.999 -99.9 -99.99 -9.99
2019/07/16 07:30 EDT    4.46   4.80    7  251    8  74.3  79.0 1018.8 -9.9 -9.999 -99.9 -99.99 -9.99
2019/07/16 07:36 EDT    4.50   4.85    7  256    9  73.4  79.0 1018.9 -9.9 -9.999 -99.9 -99.99 -9.99
2019/07/16 07:42 EDT    4.54   4.92    7  257    8  73.4  79.2 1018.9 -9.9 -9.999 -99.9 -99.99 -9.99
2019/07/16 07:48 EDT    4.58   4.94    5  263    8  73.8  79.2 1019.0 -9.9 -9.999 -99.9 -99.99 -9.99
2019/07/16 07:54 EDT    4.60   4.98    6  260    7  74.3  79.2 1018.9 -9.9 -9.999 -99.9 -99.99 -9.99
2019/07/16 08:00 EDT    4.62   5.03    6  250    7  74.3  79.2 1019.0 -9.9 -9.999 -99.9 -99.99 -9.99
2019/07/16 08:06 EDT    4.64   5.04    4  241    6  74.1  79.2 1018.9 -9.9 -9.999 -99.9 -99.99 -9.99
2019/07/16 08:12 EDT    4.64   5.03    2  266    4  74.7  79.2 1018.9 -9.9 -9.999 -99.9 -99.99 -9.99
2019/07/16 08:18 EDT    4.64   5.06    2  262    3  75.6  79.2 1019.0 -9.9 -9.999 -99.9 -99.99 -9.99
2019/07/16 08:24 EDT    4.64   5.06    3  282    4  77.4  79.2 1019.1 -9.9 -9.999 -99.9 -99.99 -9.99
2019/07/16 08:30 EDT    4.62   5.06    3  295    4  77.5  79.2 1019.1 -9.9 -9.999 -99.9 -99.99 -9.99
2019/07/16 08:36 EDT    4.60   5.04    4  296    4  76.8  79.2 1019.2 -9.9 -9.999 -99.9 -99.99 -9.99
2019/07/16 08:42 EDT    4.57   5.04    3  301    4  76.5  79.2 1019.2 -9.9 -9.999 -99.9 -99.99 -9.99
2019/07/16 08:48 EDT    4.53   5.03    3  290    4  76.6  79.0 1019.3 -9.9 -9.999 -99.9 -99.99 -9.99
2019/07/16 08:54 EDT    4.49   5.03    4  295    5  76.8  79.0 1019.2 -9.9 -9.999 -99.9 -99.99 -9.99
2019/07/16 09:00 EDT    4.45   4.98    5  299    6  76.8  79.0 1019.1 -9.9 -9.999 -99.9 -99.99 -9.99
2019/07/16 09:06 EDT    4.39   4.98    4  297    5  76.3  79.0 1019.1 -9.9 -9.999 -99.9 -99.99 -9.99
2019/07/16 09:12 EDT    4.33   4.89    4  297    5  76.3  79.2 1019.2 -9.9 -9.999 -99.9 -99.99 -9.99
2019/07/16 09:18 EDT    4.27   4.85    0  268    3  77.5  79.2 1019.1 -9.9 -9.999 -99.9 -99.99 -9.99
2019/07/16 09:24 EDT    4.20   4.77    1  254    2  78.3  79.0 1019.0 -9.9 -9.999 -99.9 -99.99 -9.99
2019/07/16 09:30 EDT    4.13   4.70    1  246    3  78.8  79.0 1019.1 -9.9 -9.999 -99.9 -99.99 -9.99
2019/07/16 09:36 EDT    4.05   4.58    2  286    3  79.2  79.0 1019.0 -9.9 -9.999 -99.9 -99.99 -9.99
2019/07/16 09:42 EDT    3.97   4.51    3  289    3  78.6  79.0 1019.0 -9.9 -9.999 -99.9 -99.99 -9.99
2019/07/16 09:48 EDT    3.88   4.44    3  289    4  78.3  79.2 1019.1 -9.9 -9.999 -99.9 -99.99 -9.99
2019/07/16 09:54 EDT    3.80   4.30    2  272    4  78.4  79.0 1019.0 -9.9 -9.999 -99.9 -99.99 -9.99
2019/07/16 10:00 EDT    3.71   4.23    2  259    3  78.6  79.2 1019.0 -9.9 -9.999 -99.9 -99.99 -9.99
2019/07/16 10:06 EDT    3.61   4.15    1  269    3  78.6  79.2 1019.0 -9.9 -9.999 -99.9 -99.99 -9.99
2019/07/16 10:12 EDT    3.52   4.05    0  240    3  78.8  79.2 1019.0 -9.9 -9.999 -99.9 -99.99 -9.99
2019/07/16 10:18 EDT    3.43   3.95    1  233    3  79.5  79.2 1019.0 -9.9 -9.999 -99.9 -99.99 -9.99
2019/07/16 10:24 EDT    3.33   3.85    0  259    3  79.2  79.2 1019.0 -9.9 -9.999 -99.9 -99.99 -9.99
2019/07/16 10:30 EDT    3.23   3.76    2  244    3  79.0  79.2 1019.0 -9.9 -9.999 -99.9 -99.99 -9.99
2019/07/16 10:36 EDT    3.13   3.63    2  239    2  78.3  79.2 1018.9 -9.9 -9.999 -99.9 -99.99 -9.99
2019/07/16 10:42 EDT    3.04   3.53    2  260    3  77.9  79.2 1018.9 -9.9 -9.999 -99.9 -99.99 -9.99
2019/07/16 10:48 EDT    2.94   3.40    2  228    4  79.0  79.3 1018.8 -9.9 -9.999 -99.9 -99.99 -9.99
2019/07/16 10:54 EDT    2.84   3.27    2  238    3  78.6  79.3 1018.8 -9.9 -9.999 -99.9 -99.99 -9.99
2019/07/16 11:00 EDT    2.74   3.16    1  216    2  78.8  79.5 1018.8 -9.9 -9.999 -99.9 -99.99 -9.99
2019/07/16 11:06 EDT    2.64   3.01    2  222    3  79.0  79.5 1018.7 -9.9 -9.999 -99.9 -99.99 -9.99
2019/07/16 11:12 EDT    2.54   2.90    1  254    3  79.0  79.3 1018.7 -9.9 -9.999 -99.9 -99.99 -9.99
2019/07/16 11:18 EDT    2.44   2.79    1  199    2  80.6  79.3 1018.6 -9.9 -9.999 -99.9 -99.99 -9.99
2019/07/16 11:24 EDT    2.35   2.68    2  170    2  80.1  79.3 1018.6 -9.9 -9.999 -99.9 -99.99 -9.99
2019/07/16 11:30 EDT    2.25   2.59    1  296    3  80.4  79.3 1018.7 -9.9 -9.999 -99.9 -99.99 -9.99
2019/07/16 11:36 EDT    2.15   2.49    2  312    3  81.9  79.3 1018.7 -9.9 -9.999 -99.9 -99.99 -9.99
2019/07/16 11:42 EDT    2.06   2.39    1  221    2  82.2  79.3 1018.6 -9.9 -9.999 -99.9 -99.99 -9.99
2019/07/16 11:48 EDT    1.96   2.30    0  125    1  83.3  79.3 1018.5 -9.9 -9.999 -99.9 -99.99 -9.99
2019/07/16 11:54 EDT    1.87   2.21    0  139    3  83.3  79.3 1018.5 -9.9 -9.999 -99.9 -99.99 -9.99
2019/07/16 12:00 EDT    1.78   2.10    2  140    3  83.3  79.3 1018.4 -9.9 -9.999 -99.9 -99.99 -9.99
2019/07/16 12:06 EDT    1.68   2.03    0  141    3  83.3  79.3 1018.4 -9.9 -9.999 -99.9 -99.99 -9.99
2019/07/16 12:12 EDT    1.59   1.93    0  134    2  82.9  79.3 1018.4 -9.9 -9.999 -99.9 -99.99 -9.99
2019/07/16 12:18 EDT    1.50   1.84    9  230   10  82.6  79.2 1018.3 -9.9 -9.999 -99.9 -99.99 -9.99
2019/07/16 12:24 EDT    1.41   1.74    6  237   10  83.8  79.2 1018.2 -9.9 -9.999 -99.9 -99.99 -9.99
2019/07/16 12:30 EDT    1.33   1.65    7  225    9  84.0  79.0 1018.1 -9.9 -9.999 -99.9 -99.99 -9.99
2019/07/16 12:36 EDT    1.24   1.59    5  247    7  84.0  79.0 1018.1 -9.9 -9.999 -99.9 -99.99 -9.99
2019/07/16 12:42 EDT    1.16   1.51    7  263   10  84.4  79.2 1018.2 -9.9 -9.999 -99.9 -99.99 -9.99
2019/07/16 12:48 EDT    1.08   1.42    7  246    8  85.3  79.3 1018.1 -9.9 -9.999 -99.9 -99.99 -9.99
2019/07/16 12:54 EDT    1.00   1.37    6  229    8  84.2  79.5 1018.1 -9.9 -9.999 -99.9 -99.99 -9.99
2019/07/16 13:00 EDT    0.92   1.34    5  246    8  84.4  79.7 1018.0 -9.9 -9.999 -99.9 -99.99 -9.99
2019/07/16 13:06 EDT    0.85   1.28    5  298    6  84.6  79.7 1018.0 -9.9 -9.999 -99.9 -99.99 -9.99
2019/07/16 13:12 EDT    0.78   1.24    4  304    6  84.4  79.7 1018.0 -9.9 -9.999 -99.9 -99.99 -9.99
2019/07/16 13:18 EDT    0.72   1.19    4  297    6  84.7  79.7 1018.0 -9.9 -9.999 -99.9 -99.99 -9.99
2019/07/16 13:24 EDT    0.65   1.14    6  298    8  84.7  80.1 1018.0 -9.9 -9.999 -99.9 -99.99 -9.99
2019/07/16 13:30 EDT    0.60   1.09    3  285    7  84.4  80.1 1017.9 -9.9 -9.999 -99.9 -99.99 -9.99
2019/07/16 13:36 EDT    0.55   1.04    1  257    4  85.1  80.4 1017.9 -9.9 -9.999 -99.9 -99.99 -9.99
2019/07/16 13:42 EDT    0.50   1.00    1  257    4  85.8  80.8 1017.8 -9.9 -9.999 -99.9 -99.99 -9.99
2019/07/16 13:48 EDT    0.46   0.94    0  277    2  85.6  80.6 1017.7 -9.9 -9.999 -99.9 -99.99 -9.99
2019/07/16 13:54 EDT    0.43   0.90    1  316    2  87.1  80.8 1017.7 -9.9 -9.999 -99.9 -99.99 -9.99
2019/07/16 14:00 EDT    0.40   0.87    0  295    2  87.4  81.0 1017.7 -9.9 -9.999 -99.9 -99.99 -9.99
2019/07/16 14:06 EDT    0.38   0.84    2  305    3  87.3  81.1 1017.6 -9.9 -9.999 -99.9 -99.99 -9.99
2019/07/16 14:12 EDT    0.37   0.83    3  309    4  86.4  81.3 1017.7 -9.9 -9.999 -99.9 -99.99 -9.99
2019/07/16 14:18 EDT    0.36   0.84    3  294    4  86.0  81.5 1017.6 -9.9 -9.999 -99.9 -99.99 -9.99
2019/07/16 14:24 EDT    0.36   0.83    2  290    3  86.4  81.5 1017.4 -9.9 -9.999 -99.9 -99.99 -9.99
2019/07/16 14:30 EDT    0.37   0.82    2  276    3  87.1  81.5 1017.4 -9.9 -9.999 -99.9 -99.99 -9.99
2019/07/16 14:36 EDT    0.39   0.87    1  206    2  87.6  81.5 1017.3 -9.9 -9.999 -99.9 -99.99 -9.99
2019/07/16 14:42 EDT    0.41   0.90    1  272    2  87.3  81.5 1017.3 -9.9 -9.999 -99.9 -99.99 -9.99
2019/07/16 14:48 EDT    0.44   0.93    2  301    3  88.0  81.7 1017.2 -9.9 -9.999 -99.9 -99.99 -9.99
2019/07/16 14:54 EDT    0.48   0.98    2  303    4  87.8  81.7 1017.2 -9.9 -9.999 -99.9 -99.99 -9.99
2019/07/16 15:00 EDT    0.53   1.05    3  304    3  87.4  81.9 1017.2 -9.9 -9.999 -99.9 -99.99 -9.99
2019/07/16 15:06 EDT    0.59   1.10    1  272    4  87.1  81.7 1017.1 -9.9 -9.999 -99.9 -99.99 -9.99
2019/07/16 15:12 EDT    0.65   1.18    1  214    2  88.2  81.7 1017.1 -9.9 -9.999 -99.9 -99.99 -9.99
2019/07/16 15:18 EDT    0.72   1.24    0  134    2  87.1  81.7 1017.1 -9.9 -9.999 -99.9 -99.99 -9.99
2019/07/16 15:24 EDT    0.79   1.33    1  249    2  87.4  81.7 1017.1 -9.9 -9.999 -99.9 -99.99 -9.99
2019/07/16 15:30 EDT    0.87   1.42    1  201    2  88.0  81.5 1017.0 -9.9 -9.999 -99.9 -99.99 -9.99
2019/07/16 15:36 EDT    0.96   1.49    1  215    2  88.3  81.9 1016.9 -9.9 -9.999 -99.9 -99.99 -9.99
2019/07/16 15:42 EDT    1.05   1.59    0  234    1  88.0  82.0 1016.8 -9.9 -9.999 -99.9 -99.99 -9.99
2019/07/16 15:48 EDT    1.15   1.69    1  209    3  88.7  82.0 1016.8 -9.9 -9.999 -99.9 -99.99 -9.99
2019/07/16 15:54 EDT    1.25   1.81    1  173    2  88.0  82.0 1016.7 -9.9 -9.999 -99.9 -99.99 -9.99
2019/07/16 16:00 EDT    1.36   1.89    0  173    2  88.0  82.0 1016.7 -9.9 -9.999 -99.9 -99.99 -9.99
2019/07/16 16:06 EDT    1.47   2.04    5  175   11  88.2  82.0 1016.6 -9.9 -9.999 -99.9 -99.99 -9.99
2019/07/16 16:12 EDT    1.58   2.15    9  171   13  86.2  82.0 1016.5 -9.9 -9.999 -99.9 -99.99 -9.99
2019/07/16 16:18 EDT    1.70   2.28    8  167   12  84.9  81.7 1016.5 -9.9 -9.999 -99.9 -99.99 -9.99
2019/07/16 16:24 EDT    1.82   2.40    8  170   10  85.3  81.5 1016.4 -9.9 -9.999 -99.9 -99.99 -9.99
2019/07/16 16:30 EDT    1.94   2.54   10  165   13  85.1  80.2 1016.4 -9.9 -9.999 -99.9 -99.99 -9.99
2019/07/16 16:36 EDT    2.07   2.68   11  165   14  84.9  79.7 1016.3 -9.9 -9.999 -99.9 -99.99 -9.99
2019/07/16 16:42 EDT    2.19   2.79   10  161   15  84.2  79.0 1016.3 -9.9 -9.999 -99.9 -99.99 -9.99
2019/07/16 16:48 EDT    2.32   2.92   10  158   12  84.6  78.4 1016.2 -9.9 -9.999 -99.9 -99.99 -9.99
2019/07/16 16:54 EDT    2.45   3.03   10  157   13  84.0  77.7 1016.2 -9.9 -9.999 -99.9 -99.99 -9.99
2019/07/16 17:00 EDT    2.58   3.19   12  160   14  84.0  78.3 1016.2 -9.9 -9.999 -99.9 -99.99 -9.99
2019/07/16 17:06 EDT    2.70   3.29   11  164   13  84.0  78.4 1016.3 -9.9 -9.999 -99.9 -99.99 -9.99
2019/07/16 17:12 EDT    2.83   3.43   13  161   15  83.8  78.1 1016.3 -9.9 -9.999 -99.9 -99.99 -9.99
2019/07/16 17:18 EDT    2.96   3.55    9  159   14  84.0  77.0 1016.2 -9.9 -9.999 -99.9 -99.99 -9.99
2019/07/16 17:24 EDT    3.09   3.68   11  159   13  84.4  76.5 1016.1 -9.9 -9.999 -99.9 -99.99 -9.99
2019/07/16 17:30 EDT    3.21   3.80   12  165   15  84.2  75.7 1016.0 -9.9 -9.999 -99.9 -99.99 -9.99
2019/07/16 17:36 EDT    3.34   3.93   12  164   14  84.2  75.6 1016.0 -9.9 -9.999 -99.9 -99.99 -9.99
2019/07/16 17:42 EDT    3.46   4.04   11  159   14  84.0  75.4 1016.0 -9.9 -9.999 -99.9 -99.99 -9.99
2019/07/16 17:48 EDT    3.59   4.18   10  156   14  83.8  75.2 1015.9 -9.9 -9.999 -99.9 -99.99 -9.99
2019/07/16 17:54 EDT    3.71   4.28   12  166   14  83.7  75.0 1015.9 -9.9 -9.999 -99.9 -99.99 -9.99
2019/07/16 18:00 EDT    3.83   4.40    9  158   13  83.8  75.0 1016.0 -9.9 -9.999 -99.9 -99.99 -9.99
2019/07/16 18:06 EDT    3.94   4.50   10  155   13  83.7  75.0 1016.0 -9.9 -9.999 -99.9 -99.99 -9.99
2019/07/16 18:12 EDT    4.06   4.61   11  152   14  83.1  75.0 1015.9 -9.9 -9.999 -99.9 -99.99 -9.99
2019/07/16 18:18 EDT    4.17   4.72   11  156   13  83.1  75.2 1015.9 -9.9 -9.999 -99.9 -99.99 -9.99
2019/07/16 18:24 EDT    4.29   4.80   11  159   14  82.8  75.7 1015.9 -9.9 -9.999 -99.9 -99.99 -9.99
2019/07/16 18:30 EDT    4.39   4.90   11  159   14  82.6  76.8 1016.0 -9.9 -9.999 -99.9 -99.99 -9.99
2019/07/16 18:36 EDT    4.50   5.01    9  157   13  82.4  78.6 1015.9 -9.9 -9.999 -99.9 -99.99 -9.99
2019/07/16 18:42 EDT    4.60   5.09    8  157   12  82.4  79.3 1015.9 -9.9 -9.999 -99.9 -99.99 -9.99
2019/07/16 18:48 EDT    4.70   5.16    9  153   12  82.2  80.2 1016.0 -9.9 -9.999 -99.9 -99.99 -9.99
2019/07/16 18:54 EDT    4.80   5.26   10  163   11  82.2  80.6 1016.0 -9.9 -9.999 -99.9 -99.99 -9.99
2019/07/16 19:00 EDT    4.89   5.33    8  162   11  82.6  80.4 1016.0 -9.9 -9.999 -99.9 -99.99 -9.99
2019/07/16 19:06 EDT    4.98   5.38    9  172   11  82.6  80.4 1016.0 -9.9 -9.999 -99.9 -99.99 -9.99
2019/07/16 19:12 EDT    5.07   5.48   11  177   12  82.6  80.1 1016.0 -9.9 -9.999 -99.9 -99.99 -9.99
2019/07/16 19:18 EDT    5.15   5.55   10  178   12  82.8  79.3 1016.0 -9.9 -9.999 -99.9 -99.99 -9.99
2019/07/16 19:24 EDT    5.22   5.61    9  180   11  82.6  77.4 1016.1 -9.9 -9.999 -99.9 -99.99 -9.99
2019/07/16 19:30 EDT    5.29   5.66    8  178   10  82.6  77.4 1016.1 -9.9 -9.999 -99.9 -99.99 -9.99
2019/07/16 19:36 EDT    5.36   5.73    9  173   10  82.6  77.9 1016.1 -9.9 -9.999 -99.9 -99.99 -9.99
2019/07/16 19:42 EDT    5.42   5.80    8  182    9  82.6  78.4 1016.1 -9.9 -9.999 -99.9 -99.99 -9.99
2019/07/16 19:48 EDT    5.47   5.84    9  179    9  82.6  78.6 1016.2 -9.9 -9.999 -99.9 -99.99 -9.99
2019/07/16 19:54 EDT    5.52   5.90    9  178   10  82.8  79.5 1016.2 -9.9 -9.999 -99.9 -99.99 -9.99
2019/07/16 20:00 EDT    5.56   5.94    9  179   10  82.6  79.9 1016.2 -9.9 -9.999 -99.9 -99.99 -9.99
2019/07/16 20:06 EDT    5.59   5.98    8  185    9  82.8  79.9 1016.2 -9.9 -9.999 -99.9 -99.99 -9.99
2019/07/16 20:12 EDT    5.62   5.98    8  184    9  82.6  80.1 1016.2 -9.9 -9.999 -99.9 -99.99 -9.99
2019/07/16 20:18 EDT    5.63   6.07    8  187    9  82.6  80.6 1016.2 -9.9 -9.999 -99.9 -99.99 -9.99
2019/07/16 20:24 EDT    5.65   6.06    7  192    9  82.6  80.8 1016.2 -9.9 -9.999 -99.9 -99.99 -9.99
2019/07/16 20:30 EDT    5.65   6.08    7  194    8  82.6  80.8 1016.2 -9.9 -9.999 -99.9 -99.99 -9.99
2019/07/16 20:36 EDT    5.65   6.09    6  199    7  82.6  80.4 1016.2 -9.9 -9.999 -99.9 -99.99 -9.99
2019/07/16 20:42 EDT    5.63   6.09    8  207    9  82.8  80.6 1016.2 -9.9 -9.999 -99.9 -99.99 -9.99
2019/07/16 20:48 EDT    5.62   6.09    8  204   10  83.1  80.6 1016.3 -9.9 -9.999 -99.9 -99.99 -9.99
2019/07/16 20:54 EDT    5.59   6.06   10  211   11  83.1  81.0 1016.3 -9.9 -9.999 -99.9 -99.99 -9.99
2019/07/16 21:00 EDT    5.56   6.06   10  210   11  83.3  81.1 1016.4 -9.9 -9.999 -99.9 -99.99 -9.99
2019/07/16 21:06 EDT    5.52   6.03   10  209   12  83.1  81.3 1016.4 -9.9 -9.999 -99.9 -99.99 -9.99
2019/07/16 21:12 EDT    5.47   5.97    9  210   11  82.8  81.5 1016.5 -9.9 -9.999 -99.9 -99.99 -9.99
2019/07/16 21:18 EDT    5.41   5.93    9  204   11  82.4  81.3 1016.6 -9.9 -9.999 -99.9 -99.99 -9.99
2019/07/16 21:24 EDT    5.35   5.89   10  206   11  82.4  81.5 1016.6 -9.9 -9.999 -99.9 -99.99 -9.99
2019/07/16 21:30 EDT    5.28   5.79   10  210   12  82.4  81.7 1016.6 -9.9 -9.999 -99.9 -99.99 -9.99
2019/07/16 21:36 EDT    5.21   5.74   11  213   13  82.2  81.5 1016.6 -9.9 -9.999 -99.9 -99.99 -9.99
2019/07/16 21:42 EDT    5.13   5.67   14  212   16  82.0  81.7 1016.7 -9.9 -9.999 -99.9 -99.99 -9.99
2019/07/16 21:48 EDT    5.04   5.57   16  211   17  81.9  81.9 1016.7 -9.9 -9.999 -99.9 -99.99 -9.99
2019/07/16 21:54 EDT    4.95   5.48   14  213   18  81.9  81.9 1016.7 -9.9 -9.999 -99.9 -99.99 -9.99
2019/07/16 22:00 EDT    4.86   5.40   14  212   16  81.5  82.0 1016.7 -9.9 -9.999 -99.9 -99.99 -9.99
2019/07/16 22:06 EDT    4.76   5.29   13  213   15  81.3  82.0 1016.7 -9.9 -9.999 -99.9 -99.99 -9.99
2019/07/16 22:12 EDT    4.66   5.18   15  216   16  81.1  82.0 1016.7 -9.9 -9.999 -99.9 -99.99 -9.99
2019/07/16 22:18 EDT    4.55   5.08   13  214   16  81.1  82.0 1016.7 -9.9 -9.999 -99.9 -99.99 -9.99
2019/07/16 22:24 EDT    4.45   4.97   13  215   15  81.0  82.0 1016.8 -9.9 -9.999 -99.9 -99.99 -9.99
2019/07/16 22:30 EDT    4.33   4.84   11  214   13  80.8  82.0 1016.8 -9.9 -9.999 -99.9 -99.99 -9.99
2019/07/16 22:36 EDT    4.22   4.73   12  209   14  80.6  82.0 1016.8 -9.9 -9.999 -99.9 -99.99 -9.99
2019/07/16 22:42 EDT    4.11   4.62   12  209   13  80.6  82.2 1016.7 -9.9 -9.999 -99.9 -99.99 -9.99
2019/07/16 22:48 EDT    3.99   4.47   11  207   14  80.2  82.2 1016.7 -9.9 -9.999 -99.9 -99.99 -9.99
2019/07/16 22:54 EDT    3.87   4.33   12  211   14  80.2  82.2 1016.7 -9.9 -9.999 -99.9 -99.99 -9.99
2019/07/16 23:00 EDT    3.75   4.20   12  215   15  80.1  82.2 1016.6 -9.9 -9.999 -99.9 -99.99 -9.99
2019/07/16 23:06 EDT    3.63   4.05   14  220   16  79.7  82.2 1016.6 -9.9 -9.999 -99.9 -99.99 -9.99
2019/07/16 23:12 EDT    3.51   3.90   16  221   17  79.7  82.2 1016.6 -9.9 -9.999 -99.9 -99.99 -9.99
2019/07/16 23:18 EDT    3.39   3.77   16  222   17  79.7  82.2 1016.6 -9.9 -9.999 -99.9 -99.99 -9.99
2019/07/16 23:24 EDT    3.27   3.64   14  226   16  79.7  82.2 1016.5 -9.9 -9.999 -99.9 -99.99 -9.99
2019/07/16 23:30 EDT    3.15   3.49   14  233   16  79.5  82.2 1016.5 -9.9 -9.999 -99.9 -99.99 -9.99
2019/07/16 23:36 EDT    3.03   3.35   13  235   15  79.5  82.0 1016.5 -9.9 -9.999 -99.9 -99.99 -9.99
2019/07/16 23:42 EDT    2.90   3.22   12  231   14  79.5  82.0 1016.5 -9.9 -9.999 -99.9 -99.99 -9.99
2019/07/16 23:48 EDT    2.78   3.06   12  231   13  79.5  82.0 1016.5 -9.9 -9.999 -99.9 -99.99 -9.99
2019/07/16 23:54 EDT    2.66   2.96   11  232   13  79.5  82.0 1016.4 -9.9 -9.999 -99.9 -99.99 -9.99
2019/07/17 00:00 EDT    2.54   2.83   11  233   12  79.3  82.0 1016.4 -9.9 -9.999 -99.9 -99.99 -9.99
2019/07/17 00:06 EDT    2.42   2.72   10  230   12  79.2  82.0 1016.4 -9.9 -9.999 -99.9 -99.99 -9.99
2019/07/17 00:12 EDT    2.30   2.58   11  222   11  79.0  82.0 1016.4 -9.9 -9.999 -99.9 -99.99 -9.99
2019/07/17 00:18 EDT    2.18   2.49   12  224   13  78.8  82.0 1016.4 -9.9 -9.999 -99.9 -99.99 -9.99
2019/07/17 00:24 EDT    2.06   2.40   11  225   13  78.8  82.0 1016.4 -9.9 -9.999 -99.9 -99.99 -9.99
2019/07/17 00:30 EDT    1.95   2.24   11  223   13  78.6  82.0 1016.4 -9.9 -9.999 -99.9 -99.99 -9.99
2019/07/17 00:36 EDT    1.83   2.15   11  217   13  78.6  82.0 1016.3 -9.9 -9.999 -99.9 -99.99 -9.99
2019/07/17 00:42 EDT    1.71   2.06   12  215   13  78.4  81.9 1016.2 -9.9 -9.999 -99.9 -99.99 -9.99
2019/07/17 00:48 EDT    1.60   1.92   11  218   14  78.6  81.9 1016.2 -9.9 -9.999 -99.9 -99.99 -9.99
2019/07/17 00:54 EDT    1.48   1.80   11  221   12  78.6  81.9 1016.1 -9.9 -9.999 -99.9 -99.99 -9.99
2019/07/17 01:00 EDT    1.37   1.76   10  221   13  78.6  82.0 1016.1 -9.9 -9.999 -99.9 -99.99 -9.99
2019/07/17 01:06 EDT    1.26   1.64   10  220   12  78.6  81.9 1016.1 -9.9 -9.999 -99.9 -99.99 -9.99
2019/07/17 01:12 EDT    1.16   1.53   11  222   12  78.4  81.9 1016.1 -9.9 -9.999 -99.9 -99.99 -9.99
2019/07/17 01:18 EDT    1.05   1.42   10  215   12  78.3  81.9 1016.1 -9.9 -9.999 -99.9 -99.99 -9.99
2019/07/17 01:24 EDT    0.95   1.35   12  215   14  78.1  81.9 1016.0 -9.9 -9.999 -99.9 -99.99 -9.99
2019/07/17 01:30 EDT    0.85   1.28   12  214   14  78.3  81.7 1015.9 -9.9 -9.999 -99.9 -99.99 -9.99
2019/07/17 01:36 EDT    0.75   1.18   12  214   14  78.1  81.7 1015.8 -9.9 -9.999 -99.9 -99.99 -9.99
2019/07/17 01:42 EDT    0.66   1.07   11  218   12  78.3  81.7 1015.8 -9.9 -9.999 -99.9 -99.99 -9.99
2019/07/17 01:48 EDT    0.58   1.03    9  218   12  78.1  81.7 1015.8 -9.9 -9.999 -99.9 -99.99 -9.99
2019/07/17 01:54 EDT    0.49   0.94   10  218   11  78.1  81.7 1015.8 -9.9 -9.999 -99.9 -99.99 -9.99
2019/07/17 02:00 EDT    0.42   0.87   10  220   12  77.9  81.7 1015.8 -9.9 -9.999 -99.9 -99.99 -9.99
2019/07/17 02:06 EDT    0.34   0.81   10  218   11  77.9  81.7 1015.7 -9.9 -9.999 -99.9 -99.99 -9.99
2019/07/17 02:12 EDT    0.28   0.74   10  213   11  77.9  81.7 1015.6 -9.9 -9.999 -99.9 -99.99 -9.99
2019/07/17 02:18 EDT    0.22   0.70   10  220   11  77.9  81.7 1015.5 -9.9 -9.999 -99.9 -99.99 -9.99
2019/07/17 02:24 EDT    0.17   0.63    9  230   11  77.5  81.7 1015.6 -9.9 -9.999 -99.9 -99.99 -9.99
2019/07/17 02:30 EDT    0.12   0.58    8  228   10  77.5  81.7 1015.6 -9.9 -9.999 -99.9 -99.99 -9.99
2019/07/17 02:36 EDT    0.08   0.57    8  229    9  77.7  81.7 1015.6 -9.9 -9.999 -99.9 -99.99 -9.99
2019/07/17 02:42 EDT    0.05   0.53    7  235    8  77.5  81.7 1015.6 -9.9 -9.999 -99.9 -99.99 -9.99
2019/07/17 02:48 EDT    0.03   0.50    6  243    7  77.5  81.7 1015.5 -9.9 -9.999 -99.9 -99.99 -9.99
2019/07/17 02:54 EDT    0.01   0.48    5  256    6  77.4  81.5 1015.6 -9.9 -9.999 -99.9 -99.99 -9.99
2019/07/17 03:00 EDT    0.01   0.48    4  256    6  77.4  81.5 1015.5 -9.9 -9.999 -99.9 -99.99 -9.99
2019/07/17 03:06 EDT    0.01   0.50    6  255    7  77.5  81.7 1015.4 -9.9 -9.999 -99.9 -99.99 -9.99
2019/07/17 03:12 EDT    0.02   0.50    5  246    7  77.7  81.5 1015.4 -9.9 -9.999 -99.9 -99.99 -9.99
2019/07/17 03:18 EDT    0.03   0.50    4  240    5  77.5  81.5 1015.3 -9.9 -9.999 -99.9 -99.99 -9.99
2019/07/17 03:24 EDT    0.06   0.53    4  230    5  77.5  81.5 1015.2 -9.9 -9.999 -99.9 -99.99 -9.99
2019/07/17 03:30 EDT    0.09   0.55    3  238    4  77.5  81.5 1015.1 -9.9 -9.999 -99.9 -99.99 -9.99
2019/07/17 03:36 EDT    0.13   0.59    3  240    4  77.5  81.3 1015.0 -9.9 -9.999 -99.9 -99.99 -9.99
2019/07/17 03:42 EDT    0.18   0.62    3  236    4  77.5  81.1 1015.0 -9.9 -9.999 -99.9 -99.99 -9.99
2019/07/17 03:48 EDT    0.23   0.70    3  232    4  77.5  81.1 1015.0 -9.9 -9.999 -99.9 -99.99 -9.99
2019/07/17 03:54 EDT    0.30   0.75    2  222    3  77.4  81.1 1015.0 -9.9 -9.999 -99.9 -99.99 -9.99
2019/07/17 04:00 EDT    0.36   0.81    2  207    3  77.5  81.1 1015.0 -9.9 -9.999 -99.9 -99.99 -9.99
2019/07/17 04:06 EDT    0.44   0.90    2  201    3  77.5  81.0 1015.0 -9.9 -9.999 -99.9 -99.99 -9.99
2019/07/17 04:12 EDT    0.52   0.98    1  203    2  77.4  80.8 1015.0 -9.9 -9.999 -99.9 -99.99 -9.99
2019/07/17 04:18 EDT    0.60   1.09    2  179    3  77.5  80.6 1015.0 -9.9 -9.999 -99.9 -99.99 -9.99
2019/07/17 04:24 EDT    0.69   1.18    2  179    3  77.5  80.4 1015.0 -9.9 -9.999 -99.9 -99.99 -9.99
2019/07/17 04:30 EDT    0.79   1.28    0  221    3  77.7  80.4 1015.0 -9.9 -9.999 -99.9 -99.99 -9.99
2019/07/17 04:36 EDT    0.88   1.38    0  103    1  77.5  80.2 1015.0 -9.9 -9.999 -99.9 -99.99 -9.99
2019/07/17 04:42 EDT    0.98   1.49    2  129    3  77.4  80.1 1015.0 -9.9 -9.999 -99.9 -99.99 -9.99
2019/07/17 04:48 EDT    1.09   1.60    2  145    3  77.0  79.9 1015.0 -9.9 -9.999 -99.9 -99.99 -9.99
2019/07/17 04:54 EDT    1.20   1.70    2  152    2  76.6  79.9 1015.0 -9.9 -9.999 -99.9 -99.99 -9.99
2019/07/17 05:00 EDT    1.31   1.82    2  162    2  76.5  79.9 1015.0 -9.9 -9.999 -99.9 -99.99 -9.99
2019/07/17 05:06 EDT    1.42   1.93    2  181    3  76.6  79.9 1015.0 -9.9 -9.999 -99.9 -99.99 -9.99
2019/07/17 05:12 EDT    1.53   2.04    2  188    3  77.0  79.7 1015.0 -9.9 -9.999 -99.9 -99.99 -9.99
2019/07/17 05:18 EDT    1.65   2.14    4  207    5  77.4  79.7 1015.0 -9.9 -9.999 -99.9 -99.99 -9.99
2019/07/17 05:24 EDT    1.76   2.27    5  215    5  77.7  79.5 1015.0 -9.9 -9.999 -99.9 -99.99 -9.99
2019/07/17 05:30 EDT    1.88   2.40    4  202    6  77.7  79.3 1015.1 -9.9 -9.999 -99.9 -99.99 -9.99
2019/07/17 05:36 EDT    1.99   2.50    4  178    6  78.1  79.0 1015.1 -9.9 -9.999 -99.9 -99.99 -9.99
2019/07/17 05:42 EDT    2.11   2.61    5  184    6  77.9  78.8 1015.0 -9.9 -9.999 -99.9 -99.99 -9.99
2019/07/17 05:48 EDT    2.22   2.75    5  201    6  77.5  78.8 1015.0 -9.9 -9.999 -99.9 -99.99 -9.99
2019/07/17 05:54 EDT    2.34   2.86    5  203    6  77.9  78.8 1015.0 -9.9 -9.999 -99.9 -99.99 -9.99
2019/07/17 06:00 EDT    2.45   2.99    5  201    6  77.7  78.4 1015.0 -9.9 -9.999 -99.9 -99.99 -9.99
2019/07/17 06:06 EDT    2.57   3.09    6  198    7  77.7  78.3 1015.0 -9.9 -9.999 -99.9 -99.99 -9.99
2019/07/17 06:12 EDT    2.68   3.21    7  201    7  77.7  77.5 1015.0 -9.9 -9.999 -99.9 -99.99 -9.99
2019/07/17 06:18 EDT    2.79   3.32    7  203    8  77.7  77.4 1015.0 -9.9 -9.999 -99.9 -99.99 -9.99
2019/07/17 06:24 EDT    2.90   3.43    7  199    8  77.7  77.9 1015.1 -9.9 -9.999 -99.9 -99.99 -9.99
2019/07/17 06:30 EDT    3.01   3.53    5  204    8  77.9  78.1 1015.1 -9.9 -9.999 -99.9 -99.99 -9.99
2019/07/17 06:36 EDT    3.12   3.62    4  221    5  77.9  78.1 1015.1 -9.9 -9.999 -99.9 -99.99 -9.99
2019/07/17 06:42 EDT    3.22   3.73    5  221    6  77.9  78.3 1015.2 -9.9 -9.999 -99.9 -99.99 -9.99
2019/07/17 06:48 EDT    3.33   3.82    5  229    7  77.9  79.0 1015.2 -9.9 -9.999 -99.9 -99.99 -9.99
2019/07/17 06:54 EDT    3.43   3.92    5  225    7  77.9  79.0 1015.2 -9.9 -9.999 -99.9 -99.99 -9.99
2019/07/17 07:00 EDT    3.53   4.02    5  219    6  77.7  79.0 1015.2 -9.9 -9.999 -99.9 -99.99 -9.99
2019/07/17 07:06 EDT    3.63   4.10    5  213    6  77.5  79.0 1015.1 -9.9 -9.999 -99.9 -99.99 -9.99
2019/07/17 07:12 EDT    3.72   4.19    4  210    6  77.9  79.0 1015.1 -9.9 -9.999 -99.9 -99.99 -9.99
2019/07/17 07:18 EDT    3.81   4.28    4  217    5  78.1  79.0 1015.1 -9.9 -9.999 -99.9 -99.99 -9.99
2019/07/17 07:24 EDT    3.90   4.36    3  204    4  78.1  79.2 1015.1 -9.9 -9.999 -99.9 -99.99 -9.99
2019/07/17 07:30 EDT    3.98   4.44    4  215    4  78.4  79.2 1015.1 -9.9 -9.999 -99.9 -99.99 -9.99
2019/07/17 07:36 EDT    4.06   4.52    4  209    4  78.3  79.2 1015.0 -9.9 -9.999 -99.9 -99.99 -9.99
2019/07/17 07:42 EDT    4.14   4.61    3  216    4  78.1  79.2 1015.0 -9.9 -9.999 -99.9 -99.99 -9.99
2019/07/17 07:48 EDT    4.21   4.66    4  227    4  78.3  79.2 1015.1 -9.9 -9.999 -99.9 -99.99 -9.99
2019/07/17 07:54 EDT    4.28   4.72    4  225    4  78.3  79.2 1015.1 -9.9 -9.999 -99.9 -99.99 -9.99
2019/07/17 08:00 EDT    4.34   4.80    4  227    4  78.3  79.0 1015.1 -9.9 -9.999 -99.9 -99.99 -9.99
2019/07/17 08:06 EDT    4.40   4.86    4  233    5  78.4  79.2 1015.2 -9.9 -9.999 -99.9 -99.99 -9.99
2019/07/17 08:12 EDT    4.45   4.90    4  230    5  78.6  78.6 1015.2 -9.9 -9.999 -99.9 -99.99 -9.99
2019/07/17 08:18 EDT    4.50   4.93    4  239    5  78.8  78.6 1015.2 -9.9 -9.999 -99.9 -99.99 -9.99
2019/07/17 08:24 EDT    4.54   4.97    4  261    5  79.2  78.3 1015.2 -9.9 -9.999 -99.9 -99.99 -9.99
2019/07/17 08:30 EDT    4.57   5.02    3  280    4  79.5  78.3 1015.1 -9.9 -9.999 -99.9 -99.99 -9.99
2019/07/17 08:36 EDT    4.60   5.05    3  289    4  80.4  78.3 1015.2 -9.9 -9.999 -99.9 -99.99 -9.99
2019/07/17 08:42 EDT    4.62   5.07    3  300    3  80.8  78.4 1015.2 -9.9 -9.999 -99.9 -99.99 -9.99
2019/07/17 08:48 EDT    4.64   5.08    3  297    4  80.6  78.4 1015.2 -9.9 -9.999 -99.9 -99.99 -9.99
2019/07/17 08:54 EDT    4.65   5.12    3  299    4  80.8  78.4 1015.3 -9.9 -9.999 -99.9 -99.99 -9.99
2019/07/17 09:00 EDT    4.65   5.12    3  301    4  80.8  78.4 1015.3 -9.9 -9.999 -99.9 -99.99 -9.99
2019/07/17 09:06 EDT    4.64   5.10    3  307    3  81.1  78.3 1015.3 -9.9 -9.999 -99.9 -99.99 -9.99
2019/07/17 09:12 EDT    4.63   5.10    2  315    3  81.5  78.4 1015.3 -9.9 -9.999 -99.9 -99.99 -9.99
2019/07/17 09:18 EDT    4.61   5.10    1  300    2  81.9  78.6 1015.2 -9.9 -9.999 -99.9 -99.99 -9.99
2019/07/17 09:24 EDT    4.58   5.08    1  296    2  82.8  79.0 1015.2 -9.9 -9.999 -99.9 -99.99 -9.99
2019/07/17 09:30 EDT    4.55   5.06    4  307    4  83.5  79.0 1015.1 -9.9 -9.999 -99.9 -99.99 -9.99
2019/07/17 09:36 EDT    4.51   5.00    4  319    6  82.0  79.0 1015.2 -9.9 -9.999 -99.9 -99.99 -9.99
2019/07/17 09:42 EDT    4.47   4.96    4  318    6  81.7  79.2 1015.2 -9.9 -9.999 -99.9 -99.99 -9.99
2019/07/17 09:48 EDT    4.42   4.94    3  299    5  81.5  79.2 1015.3 -9.9 -9.999 -99.9 -99.99 -9.99
2019/07/17 09:54 EDT    4.36   4.88    5  303    6  82.0  79.2 1015.2 -9.9 -9.999 -99.9 -99.99 -9.99
2019/07/17 10:00 EDT    4.30   4.80    7  305    8  82.8  79.3 1015.2 -9.9 -9.999 -99.9 -99.99 -9.99
2019/07/17 10:06 EDT    4.23   4.75    5  302    8  82.2  79.3 1015.2 -9.9 -9.999 -99.9 -99.99 -9.99
2019/07/17 10:12 EDT    4.16   4.68    5  305    6  82.4  79.5 1015.0 -9.9 -9.999 -99.9 -99.99 -9.99
2019/07/17 10:18 EDT    4.08   4.63    4  302    6  82.6  79.5 1015.0 -9.9 -9.999 -99.9 -99.99 -9.99
2019/07/17 10:24 EDT    4.00   4.51    5  297    7  83.1  79.5 1014.9 -9.9 -9.999 -99.9 -99.99 -9.99
2019/07/17 10:30 EDT    3.92   4.46    3  285    6  83.5  79.7 1014.9 -9.9 -9.999 -99.9 -99.99 -9.99
2019/07/17 10:36 EDT    3.83   4.36    1  274    3  84.2  79.7 1014.8 -9.9 -9.999 -99.9 -99.99 -9.99
2019/07/17 10:42 EDT    3.74   4.29    2  290    3  84.4  79.9 1014.7 -9.9 -9.999 -99.9 -99.99 -9.99
2019/07/17 10:48 EDT    3.65   4.21    1  277    2  84.4  79.9 1014.6 -9.9 -9.999 -99.9 -99.99 -9.99
2019/07/17 10:54 EDT    3.56   4.11    4  175    4  85.5  80.1 1014.6 -9.9 -9.999 -99.9 -99.99 -9.99
2019/07/17 11:00 EDT    3.46   4.01    1  189    3  83.3  80.1 1014.6 -9.9 -9.999 -99.9 -99.99 -9.99
2019/07/17 11:06 EDT    3.37   3.89    0  173    2  83.7  79.9 1014.6 -9.9 -9.999 -99.9 -99.99 -9.99
2019/07/17 11:12 EDT    3.27   3.80    5  104    6  85.3  79.7 1014.6 -9.9 -9.999 -99.9 -99.99 -9.99
2019/07/17 11:18 EDT    3.17   3.67    5  110    7  84.4  79.7 1014.5 -9.9 -9.999 -99.9 -99.99 -9.99
2019/07/17 11:24 EDT    3.07   3.57    4  119    6  83.8  79.7 1014.4 -9.9 -9.999 -99.9 -99.99 -9.99
2019/07/17 11:30 EDT    2.98   3.45    6  134    7  84.0  79.5 1014.4 -9.9 -9.999 -99.9 -99.99 -9.99
2019/07/17 11:36 EDT    2.88   3.37    6  113    7  83.8  79.5 1014.3 -9.9 -9.999 -99.9 -99.99 -9.99
2019/07/17 11:42 EDT    2.78   3.25    6  123    8  84.0  79.5 1014.3 -9.9 -9.999 -99.9 -99.99 -9.99
2019/07/17 11:48 EDT    2.68   3.18    6  124    8  84.2  79.7 1014.3 -9.9 -9.999 -99.9 -99.99 -9.99
2019/07/17 11:54 EDT    2.58   3.09    5  132    7  84.2  79.5 1014.3 -9.9 -9.999 -99.9 -99.99 -9.99
2019/07/17 12:00 EDT    2.49   3.00    6  146    8  84.9  78.6 1014.3 -9.9 -9.999 -99.9 -99.99 -9.99
2019/07/17 12:06 EDT    2.39   2.90    6  132    8  84.6  78.4 1014.3 -9.9 -9.999 -99.9 -99.99 -9.99
2019/07/17 12:12 EDT    2.30   2.82    5  137    8  85.3  78.4 1014.2 -9.9 -9.999 -99.9 -99.99 -9.99
2019/07/17 12:18 EDT    2.20   2.73    7  154    8  85.6  79.0 1014.2 -9.9 -9.999 -99.9 -99.99 -9.99
2019/07/17 12:24 EDT    2.11   2.65    7  146    8  85.8  79.3 1014.0 -9.9 -9.999 -99.9 -99.99 -9.99
2019/07/17 12:30 EDT    2.01   2.54    6  153    9  86.4  79.3 1013.9 -9.9 -9.999 -99.9 -99.99 -9.99
2019/07/17 12:36 EDT    1.92   2.47    9  171   10  86.5  79.3 1013.8 -9.9 -9.999 -99.9 -99.99 -9.99
2019/07/17 12:42 EDT    1.83   2.38    7  170   11  86.0  79.3 1013.7 -9.9 -9.999 -99.9 -99.99 -9.99
2019/07/17 12:48 EDT    1.74   2.29    9  171    9  85.8  79.5 1013.7 -9.9 -9.999 -99.9 -99.99 -9.99
2019/07/17 12:54 EDT    1.65   2.21    9  163   11  85.5  80.1 1013.6 -9.9 -9.999 -99.9 -99.99 -9.99
2019/07/17 13:00 EDT    1.56   2.13    8  158   11  85.6  80.2 1013.6 -9.9 -9.999 -99.9 -99.99 -9.99
2019/07/17 13:06 EDT    1.47   2.03    8  153   10  86.0  80.2 1013.5 -9.9 -9.999 -99.9 -99.99 -9.99
2019/07/17 13:12 EDT    1.39   1.94    7  149    9  85.6  80.2 1013.4 -9.9 -9.999 -99.9 -99.99 -9.99
2019/07/17 13:18 EDT    1.31   1.85    6  151    8  85.5  80.2 1013.4 -9.9 -9.999 -99.9 -99.99 -9.99
2019/07/17 13:24 EDT    1.22   1.78    6  150    8  85.3  80.1 1013.3 -9.9 -9.999 -99.9 -99.99 -9.99
2019/07/17 13:30 EDT    1.14   1.72    5  145    6  85.5  79.5 1013.3 -9.9 -9.999 -99.9 -99.99 -9.99
2019/07/17 13:36 EDT    1.07   1.65    6  153    8  85.8  79.7 1013.2 -9.9 -9.999 -99.9 -99.99 -9.99
2019/07/17 13:42 EDT    0.99   1.59    5  163    8  86.4  79.7 1013.1 -9.9 -9.999 -99.9 -99.99 -9.99
2019/07/17 13:48 EDT    0.92   1.52   10  164   12  86.2  79.5 1013.1 -9.9 -9.999 -99.9 -99.99 -9.99
2019/07/17 13:54 EDT    0.85   1.48    9  172   10  86.4  79.3 1013.0 -9.9 -9.999 -99.9 -99.99 -9.99
2019/07/17 14:00 EDT    0.79   1.42    7  184    9  86.4  79.3 1013.0 -9.9 -9.999 -99.9 -99.99 -9.99
2019/07/17 14:06 EDT    0.73   1.37    9  170   11  86.4  78.6 1012.9 -9.9 -9.999 -99.9 -99.99 -9.99
2019/07/17 14:12 EDT    0.67   1.31    9  166   12  86.9  78.4 1012.8 -9.9 -9.999 -99.9 -99.99 -9.99
2019/07/17 14:18 EDT    0.62   1.27    8  171   13  86.5  78.1 1012.8 -9.9 -9.999 -99.9 -99.99 -9.99
2019/07/17 14:24 EDT    0.57   1.20    9  174   13  87.1  78.1 1012.7 -9.9 -9.999 -99.9 -99.99 -9.99
2019/07/17 14:30 EDT    0.53   1.18    9  176   11  86.9  78.1 1012.6 -9.9 -9.999 -99.9 -99.99 -9.99
2019/07/17 14:36 EDT    0.50   1.10    9  169   13  85.3  78.3 1012.5 -9.9 -9.999 -99.9 -99.99 -9.99
2019/07/17 14:42 EDT    0.47   1.11   10  174   12  86.9  78.3 1012.4 -9.9 -9.999 -99.9 -99.99 -9.99
2019/07/17 14:48 EDT    0.45   1.07    9  181   12  86.9  79.0 1012.4 -9.9 -9.999 -99.9 -99.99 -9.99
2019/07/17 14:54 EDT    0.43   1.03   10  182   13  86.0  79.3 1012.3 -9.9 -9.999 -99.9 -99.99 -9.99
2019/07/17 15:00 EDT    0.43   0.98    7  187   11  85.6  79.7 1012.3 -9.9 -9.999 -99.9 -99.99 -9.99
2019/07/17 15:06 EDT    0.42   1.05    8  178   10  86.2  80.1 1012.2 -9.9 -9.999 -99.9 -99.99 -9.99
2019/07/17 15:12 EDT    0.43   0.98    8  181   10  85.8  80.6 1012.1 -9.9 -9.999 -99.9 -99.99 -9.99
2019/07/17 15:18 EDT    0.45   1.00    7  179    9  86.7  80.8 1012.1 -9.9 -9.999 -99.9 -99.99 -9.99
2019/07/17 15:24 EDT    0.47   1.03    7  180    8  86.0  80.8 1012.0 -9.9 -9.999 -99.9 -99.99 -9.99
2019/07/17 15:30 EDT    0.50   1.05    7  170    9  87.4  81.3 1011.9 -9.9 -9.999 -99.9 -99.99 -9.99
2019/07/17 15:36 EDT    0.53   1.08    4  191    7  87.4  81.1 1011.7 -9.9 -9.999 -99.9 -99.99 -9.99
2019/07/17 15:42 EDT    0.58   1.12    7  177    9  87.4  81.1 1011.7 -9.9 -9.999 -99.9 -99.99 -9.99
2019/07/17 15:48 EDT    0.63   1.18    5  183    7  86.0  81.5 1011.7 -9.9 -9.999 -99.9 -99.99 -9.99
2019/07/17 15:54 EDT    0.69   1.23    7  155    8  87.8  81.3 1011.6 -9.9 -9.999 -99.9 -99.99 -9.99
2019/07/17 16:00 EDT    0.76   1.28    6  169    8  87.6  81.7 1011.5 -9.9 -9.999 -99.9 -99.99 -9.99
2019/07/17 16:06 EDT    0.83   1.36    6  174    8  88.0  82.8 1011.4 -9.9 -9.999 -99.9 -99.99 -9.99
2019/07/17 16:12 EDT    0.91   1.46    5  168    9  88.3  81.9 1011.3 -9.9 -9.999 -99.9 -99.99 -9.99
2019/07/17 16:18 EDT    1.00   1.47    6  174    7  88.5  82.6 1011.4 -9.9 -9.999 -99.9 -99.99 -9.99
2019/07/17 16:24 EDT    1.09   1.63    5  176    8  88.3  82.4 1011.2 -9.9 -9.999 -99.9 -99.99 -9.99
2019/07/17 16:30 EDT    1.19   1.69    5  173    7  87.8  82.4 1011.1 -9.9 -9.999 -99.9 -99.99 -9.99
2019/07/17 16:36 EDT    1.29   1.80    5  180   10  88.3  82.0 1011.1 -9.9 -9.999 -99.9 -99.99 -9.99
2019/07/17 16:42 EDT    1.40   1.90   10  217   12  88.2  81.9 1011.0 -9.9 -9.999 -99.9 -99.99 -9.99
2019/07/17 16:48 EDT    1.51   2.03    9  232   11  90.0  82.0 1010.9 -9.9 -9.999 -99.9 -99.99 -9.99
2019/07/17 16:54 EDT    1.62   2.16   11  218   14  88.5  82.4 1010.8 -9.9 -9.999 -99.9 -99.99 -9.99
2019/07/17 17:00 EDT    1.74   2.25   13  221   15  90.1  82.4 1010.7 -9.9 -9.999 -99.9 -99.99 -9.99
2019/07/17 17:06 EDT    1.86   2.40   12  228   15  90.1  82.4 1010.6 -9.9 -9.999 -99.9 -99.99 -9.99
2019/07/17 17:12 EDT    1.98   2.52   13  227   14  89.8  82.6 1010.6 -9.9 -9.999 -99.9 -99.99 -9.99
2019/07/17 17:18 EDT    2.11   2.63   11  224   13  89.8  82.4 1010.6 -9.9 -9.999 -99.9 -99.99 -9.99
2019/07/17 17:24 EDT    2.24   2.78   12  231   14  89.6  80.8 1010.5 -9.9 -9.999 -99.9 -99.99 -9.99
2019/07/17 17:30 EDT    2.36   2.90   12  230   14  90.0  79.5 1010.5 -9.9 -9.999 -99.9 -99.99 -9.99
2019/07/17 17:36 EDT    2.49   3.04   13  232   16  90.0  80.1 1010.5 -9.9 -9.999 -99.9 -99.99 -9.99
2019/07/17 17:42 EDT    2.62   3.18   11  239   12  90.1  78.6 1010.5 -9.9 -9.999 -99.9 -99.99 -9.99
2019/07/17 17:48 EDT    2.75   3.32   11  235   15  89.2  77.2 1010.5 -9.9 -9.999 -99.9 -99.99 -9.99
2019/07/17 17:54 EDT    2.87   3.46   12  224   14  90.0  76.6 1010.5 -9.9 -9.999 -99.9 -99.99 -9.99
2019/07/17 18:00 EDT    3.00   3.63   11  225   13  89.2  77.7 1010.5 -9.9 -9.999 -99.9 -99.99 -9.99
2019/07/17 18:06 EDT    3.13   3.75    9  230   12  89.8  77.7 1010.6 -9.9 -9.999 -99.9 -99.99 -9.99
2019/07/17 18:12 EDT    3.25   3.89   10  236   12  89.2  79.3 1010.6 -9.9 -9.999 -99.9 -99.99 -9.99
2019/07/17 18:18 EDT    3.37   4.04   10  236   12  89.8  80.2 1010.6 -9.9 -9.999 -99.9 -99.99 -9.99
2019/07/17 18:24 EDT    3.50   4.19    9  234   12  89.8  81.1 1010.6 -9.9 -9.999 -99.9 -99.99 -9.99
2019/07/17 18:30 EDT    3.61   4.31   10  227   11  88.3  82.0 1010.6 -9.9 -9.999 -99.9 -99.99 -9.99
2019/07/17 18:36 EDT    3.73   4.44   11  229   12  88.3  82.0 1010.6 -9.9 -9.999 -99.9 -99.99 -9.99
2019/07/17 18:42 EDT    3.85   4.58   11  225   14  89.4  82.0 1010.6 -9.9 -9.999 -99.9 -99.99 -9.99
2019/07/17 18:48 EDT    3.96   4.68   11  225   13  89.2  82.2 1010.5 -9.9 -9.999 -99.9 -99.99 -9.99
2019/07/17 18:54 EDT    4.07   4.78    9  223   11  89.8  82.2 1010.4 -9.9 -9.999 -99.9 -99.99 -9.99
2019/07/17 19:00 EDT    4.18   4.89    9  217   10  88.3  82.2 1010.4 -9.9 -9.999 -99.9 -99.99 -9.99
2019/07/17 19:06 EDT    4.29   5.00    8  221    9  88.3  82.2 1010.4 -9.9 -9.999 -99.9 -99.99 -9.99
2019/07/17 19:12 EDT    4.39   5.09    8  216    8  87.6  82.2 1010.5 -9.9 -9.999 -99.9 -99.99 -9.99
2019/07/17 19:18 EDT    4.49   5.20    7  210    8  89.4  82.0 1010.6 -9.9 -9.999 -99.9 -99.99 -9.99
2019/07/17 19:24 EDT    4.59   5.29    5  209    7  89.1  81.5 1010.8 -9.9 -9.999 -99.9 -99.99 -9.99
2019/07/17 19:30 EDT    4.68   5.37    5  208    6  87.4  80.1 1010.9 -9.9 -9.999 -99.9 -99.99 -9.99
2019/07/17 19:36 EDT    4.77   5.47    6  211    7  86.4  78.8 1010.8 -9.9 -9.999 -99.9 -99.99 -9.99
2019/07/17 19:42 EDT    4.86   5.55    7  208    8  86.9  77.0 1010.8 -9.9 -9.999 -99.9 -99.99 -9.99
2019/07/17 19:48 EDT    4.94   5.63    8  205    9  86.5  79.9 1010.9 -9.9 -9.999 -99.9 -99.99 -9.99
2019/07/17 19:54 EDT    5.02   5.69    8  203    9  85.6  81.7 1010.9 -9.9 -9.999 -99.9 -99.99 -9.99
2019/07/17 20:00 EDT    5.09   5.79    8  189   10  85.6  81.7 1010.9 -9.9 -9.999 -99.9 -99.99 -9.99
2019/07/17 20:06 EDT    5.16   5.82    9  191   10  85.3  81.9 1011.0 -9.9 -9.999 -99.9 -99.99 -9.99
2019/07/17 20:12 EDT    5.22   5.87    9  193   10  86.4  82.0 1011.0 -9.9 -9.999 -99.9 -99.99 -9.99
2019/07/17 20:18 EDT    5.28   5.92   11  206   12  86.5  81.9 1011.1 -9.9 -9.999 -99.9 -99.99 -9.99
2019/07/17 20:24 EDT    5.34   5.97   11  220   13  86.7  81.5 1011.2 -9.9 -9.999 -99.9 -99.99 -9.99
2019/07/17 20:30 EDT    5.39   5.99   10  253   12  86.5  82.0 1011.4 -9.9 -9.999 -99.9 -99.99 -9.99
2019/07/17 20:36 EDT    5.43   6.04   20  334   23  85.6  82.0 1011.8 -9.9 -9.999 -99.9 -99.99 -9.99
2019/07/17 20:42 EDT    5.46   6.06   20  345   28  79.9  82.0 1011.8 -9.9 -9.999 -99.9 -99.99 -9.99
2019/07/17 20:48 EDT    5.49   6.06    9  353   21  78.4  80.4 1011.9 -9.9 -9.999 -99.9 -99.99 -9.99
2019/07/17 20:54 EDT    5.52   6.11    8   19   16  77.7  77.2 1012.1 -9.9 -9.999 -99.9 -99.99 -9.99
2019/07/17 21:00 EDT    5.53   6.10   11   26   16  76.8  75.7 1012.2 -9.9 -9.999 -99.9 -99.99 -9.99
2019/07/17 21:06 EDT    5.54   6.12    9   30   17  76.1  76.3 1012.1 -9.9 -9.999 -99.9 -99.99 -9.99
2019/07/17 21:12 EDT    5.55   6.11    8   34   14  76.5  76.5 1012.2 -9.9 -9.999 -99.9 -99.99 -9.99
2019/07/17 21:18 EDT    5.54   6.08    9   45   13  76.1  77.2 1012.1 -9.9 -9.999 -99.9 -99.99 -9.99
2019/07/17 21:24 EDT    5.53   6.03   19  308   23  75.9  75.9 1012.3 -9.9 -9.999 -99.9 -99.99 -9.99
2019/07/17 21:30 EDT    5.51   6.08   12  345   17  75.9  73.9 1013.4 -9.9 -9.999 -99.9 -99.99 -9.99
2019/07/17 21:36 EDT    5.48   6.02   13  320   16  75.0  73.0 1013.7 -9.9 -9.999 -99.9 -99.99 -9.99
2019/07/17 21:42 EDT    5.45   6.07    9  283   15  74.7  72.9 1014.5 -9.9 -9.999 -99.9 -99.99 -9.99
2019/07/17 21:48 EDT    5.41   6.06   14  236   19  75.4  73.0 1014.6 -9.9 -9.999 -99.9 -99.99 -9.99
2019/07/17 21:54 EDT    5.36   6.10   12  190   18  74.7  73.8 1014.2 -9.9 -9.999 -99.9 -99.99 -9.99
2019/07/17 22:00 EDT    5.31   5.88   10  187   14  73.9  73.6 1014.0 -9.9 -9.999 -99.9 -99.99 -9.99
2019/07/17 22:06 EDT    5.25   5.84    5  197   11  73.2  73.6 1013.9 -9.9 -9.999 -99.9 -99.99 -9.99
2019/07/17 22:12 EDT    5.18   5.71    4  189    7  73.2  75.4 1013.6 -9.9 -9.999 -99.9 -99.99 -9.99
2019/07/17 22:18 EDT    5.11   5.56    3  167    5  73.8  77.7 1013.5 -9.9 -9.999 -99.9 -99.99 -9.99
2019/07/17 22:24 EDT    5.03   5.36    1  144    4  73.9  79.5 1013.3 -9.9 -9.999 -99.9 -99.99 -9.99
2019/07/17 22:30 EDT    4.95   5.32    0  114    2  73.9  80.1 1013.3 -9.9 -9.999 -99.9 -99.99 -9.99
2019/07/17 22:36 EDT    4.86   5.17    1   82    2  73.6  80.2 1013.2 -9.9 -9.999 -99.9 -99.99 -9.99
2019/07/17 22:42 EDT    4.77   5.09    3  189    4  73.2  80.4 1013.2 -9.9 -9.999 -99.9 -99.99 -9.99
2019/07/17 22:48 EDT    4.67   5.02    4  217    5  73.8  80.4 1013.6 -9.9 -9.999 -99.9 -99.99 -9.99
2019/07/17 22:54 EDT    4.57   4.93    3  232    4  74.1  80.4 1013.7 -9.9 -9.999 -99.9 -99.99 -9.99
2019/07/17 23:00 EDT    4.46   4.83    4  226    5  74.3  80.6 1013.6 -9.9 -9.999 -99.9 -99.99 -9.99
2019/07/17 23:06 EDT    4.35   4.73    3  234    4  74.5  80.6 1013.6 -9.9 -9.999 -99.9 -99.99 -9.99
2019/07/17 23:12 EDT    4.24   4.61    3  227    4  74.5  80.6 1013.4 -9.9 -9.999 -99.9 -99.99 -9.99
2019/07/17 23:18 EDT    4.13   4.48    3  217    4  74.7  80.8 1013.3 -9.9 -9.999 -99.9 -99.99 -9.99
2019/07/17 23:24 EDT    4.02   4.39    4  204    5  74.7  81.0 1013.3 -9.9 -9.999 -99.9 -99.99 -9.99
2019/07/17 23:30 EDT    3.90   4.14    5  200    6  74.8  81.0 1013.3 -9.9 -9.999 -99.9 -99.99 -9.99
2019/07/17 23:36 EDT    3.78   4.09    6  194    7  74.8  81.1 1013.2 -9.9 -9.999 -99.9 -99.99 -9.99
2019/07/17 23:42 EDT    3.66   3.93    7  209    8  74.8  81.1 1013.0 -9.9 -9.999 -99.9 -99.99 -9.99
2019/07/17 23:48 EDT    3.54   3.76    5  207    7  75.0  81.0 1012.9 -9.9 -9.999 -99.9 -99.99 -9.99
2019/07/17 23:54 EDT    3.42   3.60    4  217    6  75.0  80.8 1012.8 -9.9 -9.999 -99.9 -99.99 -9.99
2019/07/18 00:00 EDT    3.30   3.52    5  223    6  75.2  80.4 1012.6 -9.9 -9.999 -99.9 -99.99 -9.99
2019/07/18 00:06 EDT    3.18   3.39    6  235    7  75.0  80.1 1012.4 -9.9 -9.999 -99.9 -99.99 -9.99
2019/07/18 00:12 EDT    3.06   3.26    5  241    6  75.0  80.1 1012.4 -9.9 -9.999 -99.9 -99.99 -9.99
2019/07/18 00:18 EDT    2.94   3.12    5  261    6  75.0  79.0 1012.2 -9.9 -9.999 -99.9 -99.99 -9.99
2019/07/18 00:24 EDT    2.82   3.04    5  258    7  75.2  77.5 1012.2 -9.9 -9.999 -99.9 -99.99 -9.99
2019/07/18 00:30 EDT    2.70   2.92    6  260    7  75.0  77.5 1012.1 -9.9 -9.999 -99.9 -99.99 -9.99
2019/07/18 00:36 EDT    2.59   2.78    5  262    7  75.0  77.7 1011.9 -9.9 -9.999 -99.9 -99.99 -9.99
2019/07/18 00:42 EDT    2.47   2.68    5  255    7  75.0  77.7 1011.9 -9.9 -9.999 -99.9 -99.99 -9.99
2019/07/18 00:48 EDT    2.35   2.60    4  263    6  75.0  77.9 1011.9 -9.9 -9.999 -99.9 -99.99 -9.99
2019/07/18 00:54 EDT    2.23   2.46    4  247    5  75.2  78.3 1011.7 -9.9 -9.999 -99.9 -99.99 -9.99
2019/07/18 01:00 EDT    2.12   2.34    4  236    5  75.2  78.4 1011.7 -9.9 -9.999 -99.9 -99.99 -9.99
2019/07/18 01:06 EDT    2.00   2.24    5  230    6  75.2  78.6 1011.8 -9.9 -9.999 -99.9 -99.99 -9.99
2019/07/18 01:12 EDT    1.89   2.18    5  232    6  75.4  78.6 1011.9 -9.9 -9.999 -99.9 -99.99 -9.99
2019/07/18 01:18 EDT    1.77   2.07    6  217    6  75.4  78.8 1011.9 -9.9 -9.999 -99.9 -99.99 -9.99
2019/07/18 01:24 EDT    1.66   1.95    5  214    6  75.4  79.2 1012.0 -9.9 -9.999 -99.9 -99.99 -9.99
2019/07/18 01:30 EDT    1.55   1.90    5  190    6  75.7  79.3 1012.0 -9.9 -9.999 -99.9 -99.99 -9.99
2019/07/18 01:36 EDT    1.44   1.83    6  186    7  75.6  79.3 1012.0 -9.9 -9.999 -99.9 -99.99 -9.99
2019/07/18 01:42 EDT    1.33   1.76    6  192    7  75.6  79.3 1012.0 -9.9 -9.999 -99.9 -99.99 -9.99
2019/07/18 01:48 EDT    1.23   1.68    4  192    7  75.9  79.5 1012.0 -9.9 -9.999 -99.9 -99.99 -9.99
2019/07/18 01:54 EDT    1.13   1.62    6  184    7  76.3  80.1 1012.0 -9.9 -9.999 -99.9 -99.99 -9.99
2019/07/18 02:00 EDT    1.02   1.54    4  157    6  76.1  80.4 1012.0 -9.9 -9.999 -99.9 -99.99 -9.99
2019/07/18 02:06 EDT    0.93   1.48    5  185    8  76.1  80.8 1012.1 -9.9 -9.999 -99.9 -99.99 -9.99
2019/07/18 02:12 EDT    0.83   1.38    7  192    8  76.1  81.1 1012.3 -9.9 -9.999 -99.9 -99.99 -9.99
2019/07/18 02:18 EDT    0.74   1.30   11  198   13  75.9  81.1 1012.5 -9.9 -9.999 -99.9 -99.99 -9.99
2019/07/18 02:24 EDT    0.65   1.26   13  189   15  75.9  81.3 1012.6 -9.9 -9.999 -99.9 -99.99 -9.99
2019/07/18 02:30 EDT    0.57   1.13   14  196   15  75.6  81.1 1012.8 -9.9 -9.999 -99.9 -99.99 -9.99
2019/07/18 02:36 EDT    0.49   1.06   12  197   15  75.4  81.1 1012.7 -9.9 -9.999 -99.9 -99.99 -9.99
2019/07/18 02:42 EDT    0.42   0.99   12  190   15  75.6  81.1 1012.8 -9.9 -9.999 -99.9 -99.99 -9.99
2019/07/18 02:48 EDT    0.35   0.92   11  199   15  75.4  81.1 1012.8 -9.9 -9.999 -99.9 -99.99 -9.99
2019/07/18 02:54 EDT    0.29   0.90   10  202   12  75.4  81.1 1012.8 -9.9 -9.999 -99.9 -99.99 -9.99
2019/07/18 03:00 EDT    0.23   0.85   10  195   12  75.6  81.1 1012.7 -9.9 -9.999 -99.9 -99.99 -9.99
2019/07/18 03:06 EDT    0.18   0.89    9  198   13  75.7  81.1 1012.7 -9.9 -9.999 -99.9 -99.99 -9.99
2019/07/18 03:12 EDT    0.14   0.84    8  206   11  75.6  81.1 1012.5 -9.9 -9.999 -99.9 -99.99 -9.99
2019/07/18 03:18 EDT    0.10   0.88    7  209    9  75.6  81.1 1012.5 -9.9 -9.999 -99.9 -99.99 -9.99
2019/07/18 03:24 EDT    0.07   0.91    9  216    9  75.6  81.1 1012.4 -9.9 -9.999 -99.9 -99.99 -9.99
2019/07/18 03:30 EDT    0.05   0.96    7  211    9  75.6  81.1 1012.3 -9.9 -9.999 -99.9 -99.99 -9.99
2019/07/18 03:36 EDT    0.04   0.94    6  203    9  75.7  81.1 1012.3 -9.9 -9.999 -99.9 -99.99 -9.99
2019/07/18 03:42 EDT    0.03   0.97    5  195    7  75.7  81.1 1012.2 -9.9 -9.999 -99.9 -99.99 -9.99
2019/07/18 03:48 EDT    0.04   0.97    6  199    7  75.7  81.1 1012.1 -9.9 -9.999 -99.9 -99.99 -9.99
2019/07/18 03:54 EDT    0.05   0.95    6  194    8  75.9  81.1 1012.1 -9.9 -9.999 -99.9 -99.99 -9.99
2019/07/18 04:00 EDT    0.06   0.95    7  198   10  75.9  81.0 1012.1 -9.9 -9.999 -99.9 -99.99 -9.99
2019/07/18 04:06 EDT    0.09   0.95    6  200    8  75.7  81.0 1012.1 -9.9 -9.999 -99.9 -99.99 -9.99
2019/07/18 04:12 EDT    0.13   0.98    6  210    7  75.9  81.0 1012.1 -9.9 -9.999 -99.9 -99.99 -9.99
2019/07/18 04:18 EDT    0.17   0.95    4  251    6  75.9  80.8 1012.2 -9.9 -9.999 -99.9 -99.99 -9.99
2019/07/18 04:24 EDT    0.22   0.99    4  237    7  75.9  80.2 1012.2 -9.9 -9.999 -99.9 -99.99 -9.99
2019/07/18 04:30 EDT    0.28   1.06    3  233    5  75.7  80.1 1012.2 -9.9 -9.999 -99.9 -99.99 -9.99
2019/07/18 04:36 EDT    0.34   1.12    2  241    5  75.6  80.1 1012.2 -9.9 -9.999 -99.9 -99.99 -9.99
2019/07/18 04:42 EDT    0.41   1.25    3  244    4  75.6  79.9 1012.1 -9.9 -9.999 -99.9 -99.99 -9.99
2019/07/18 04:48 EDT    0.49   1.33    2  237    4  75.6  79.9 1012.1 -9.9 -9.999 -99.9 -99.99 -9.99
2019/07/18 04:54 EDT    0.57   1.42    3  253    4  75.7  79.9 1012.1 -9.9 -9.999 -99.9 -99.99 -9.99
2019/07/18 05:00 EDT    0.66   1.51    4  256    4  75.6  79.9 1012.1 -9.9 -9.999 -99.9 -99.99 -9.99
2019/07/18 05:06 EDT    0.75   1.62    4  251    5  75.6  79.7 1012.1 -9.9 -9.999 -99.9 -99.99 -9.99
2019/07/18 05:12 EDT    0.85   1.69    4  239    6  75.7  79.7 1012.1 -9.9 -9.999 -99.9 -99.99 -9.99
2019/07/18 05:18 EDT    0.95   1.70    4  234    6  75.7  79.7 1012.0 -9.9 -9.999 -99.9 -99.99 -9.99
2019/07/18 05:24 EDT    1.05   1.84    5  247    7  75.9  79.7 1011.9 -9.9 -9.999 -99.9 -99.99 -9.99
2019/07/18 05:30 EDT    1.16   1.91    5  242    6  75.9  79.7 1012.1 -9.9 -9.999 -99.9 -99.99 -9.99
2019/07/18 05:36 EDT    1.27   1.93    6  231    7  75.9  79.7 1012.0 -9.9 -9.999 -99.9 -99.99 -9.99
2019/07/18 05:42 EDT    1.38   2.03    5  246    6  75.9  79.7 1012.0 -9.9 -9.999 -99.9 -99.99 -9.99
2019/07/18 05:48 EDT    1.50   2.13    5  248    6  75.9  79.7 1012.1 -9.9 -9.999 -99.9 -99.99 -9.99
2019/07/18 05:54 EDT    1.61   2.18    5  250    7  75.7  79.7 1012.0 -9.9 -9.999 -99.9 -99.99 -9.99
2019/07/18 06:00 EDT    1.73   2.27    4  271    6  75.7  79.7 1012.1 -9.9 -9.999 -99.9 -99.99 -9.99
2019/07/18 06:06 EDT    1.84   2.40    5  266    7  75.9  79.7 1012.3 -9.9 -9.999 -99.9 -99.99 -9.99
2019/07/18 06:12 EDT    1.96   2.54    5  269    7  75.7  79.7 1012.4 -9.9 -9.999 -99.9 -99.99 -9.99
2019/07/18 06:18 EDT    2.08   2.66    5  278    7  75.9  79.7 1012.6 -9.9 -9.999 -99.9 -99.99 -9.99
2019/07/18 06:24 EDT    2.19   2.75    4  268    8  75.9  79.7 1012.7 -9.9 -9.999 -99.9 -99.99 -9.99
2019/07/18 06:30 EDT    2.31   2.89    4  277    7  75.9  79.7 1012.7 -9.9 -9.999 -99.9 -99.99 -9.99
2019/07/18 06:36 EDT    2.42   2.97    4  273    7  75.7  79.5 1012.8 -9.9 -9.999 -99.9 -99.99 -9.99
2019/07/18 06:42 EDT    2.53   3.02    4  279    6  75.7  79.0 1012.8 -9.9 -9.999 -99.9 -99.99 -9.99
2019/07/18 06:48 EDT    2.65 -99.99 -999 -999 -999 -99.9 -99.9 -999.9 -9.9 -9.999 -99.9 -99.99 -9.99
2019/07/18 06:54 EDT    2.76   3.23    4  254    4  75.6  78.3 1012.6 -9.9 -9.999 -99.9 -99.99 -9.99
2019/07/18 07:00 EDT    2.86   3.20    4  250    4  75.7  78.4 1012.6 -9.9 -9.999 -99.9 -99.99 -9.99
2019/07/18 07:06 EDT    2.97   3.31    1  273    4  75.7  79.0 1012.7 -9.9 -9.999 -99.9 -99.99 -9.99
2019/07/18 07:12 EDT    3.08   3.43    2  244    3  75.9  79.2 1012.7 -9.9 -9.999 -99.9 -99.99 -9.99
2019/07/18 07:18 EDT    3.18   3.52    2  254    3  75.7  79.3 1012.7 -9.9 -9.999 -99.9 -99.99 -9.99
2019/07/18 07:24 EDT    3.28   3.52    2  267    3  75.9  79.5 1012.8 -9.9 -9.999 -99.9 -99.99 -9.99
2019/07/18 07:30 EDT    3.38   3.67    2  293    3  75.9  79.3 1012.8 -9.9 -9.999 -99.9 -99.99 -9.99
2019/07/18 07:36 EDT    3.47   3.81    2    7    3  75.9  79.3 1012.8 -9.9 -9.999 -99.9 -99.99 -9.99
2019/07/18 07:42 EDT    3.56   3.87    3   33    3  75.7  79.3 1012.8 -9.9 -9.999 -99.9 -99.99 -9.99
2019/07/18 07:48 EDT    3.65   3.99    1   45    4  75.6  79.3 1012.8 -9.9 -9.999 -99.9 -99.99 -9.99
2019/07/18 07:54 EDT    3.74   4.10    2   53    2  75.4  79.3 1012.8 -9.9 -9.999 -99.9 -99.99 -9.99
2019/07/18 08:00 EDT    3.83   4.16    0   50    2  75.4  79.2 1012.8 -9.9 -9.999 -99.9 -99.99 -9.99
2019/07/18 08:06 EDT    3.91   4.26    1   89    2  75.7  79.0 1012.8 -9.9 -9.999 -99.9 -99.99 -9.99
2019/07/18 08:12 EDT    3.99   4.37    1  111    2  75.7  78.6 1012.8 -9.9 -9.999 -99.9 -99.99 -9.99
2019/07/18 08:18 EDT    4.06   4.44    0   98    2  75.7  78.8 1012.8 -9.9 -9.999 -99.9 -99.99 -9.99
2019/07/18 08:24 EDT    4.13   4.53    2   36    3  76.1  79.0 1012.8 -9.9 -9.999 -99.9 -99.99 -9.99
2019/07/18 08:30 EDT    4.20   4.60    3  104    4  76.1  79.0 1012.8 -9.9 -9.999 -99.9 -99.99 -9.99
2019/07/18 08:36 EDT    4.26   4.72    5  132    6  75.9  78.8 1012.8 -9.9 -9.999 -99.9 -99.99 -9.99
2019/07/18 08:42 EDT    4.32   4.76    4  122    6  75.4  78.8 1012.9 -9.9 -9.999 -99.9 -99.99 -9.99
2019/07/18 08:48 EDT    4.37   4.82    5  121    7  75.7  78.4 1012.8 -9.9 -9.999 -99.9 -99.99 -9.99
2019/07/18 08:54 EDT    4.42   4.90    4  126    6  75.7  78.8 1012.8 -9.9 -9.999 -99.9 -99.99 -9.99
2019/07/18 09:00 EDT    4.46   4.93    4  140    6  75.9  78.8 1012.9 -9.9 -9.999 -99.9 -99.99 -9.99
2019/07/18 09:06 EDT    4.50   4.97    4  144    7  75.9  79.0 1013.0 -9.9 -9.999 -99.9 -99.99 -9.99
2019/07/18 09:12 EDT    4.53   5.04    5  153    5  75.9  79.0 1013.0 -9.9 -9.999 -99.9 -99.99 -9.99
2019/07/18 09:18 EDT    4.56   5.10    4  160    5  75.9  79.0 1013.1 -9.9 -9.999 -99.9 -99.99 -9.99
2019/07/18 09:24 EDT    4.58   5.09    5  153    7  75.9  79.0 1013.1 -9.9 -9.999 -99.9 -99.99 -9.99
2019/07/18 09:30 EDT    4.60   5.12    5  153    7  75.9  79.0 1013.1 -9.9 -9.999 -99.9 -99.99 -9.99
2019/07/18 09:36 EDT    4.60   5.15    6  162    8  75.9  79.2 1013.1 -9.9 -9.999 -99.9 -99.99 -9.99
2019/07/18 09:42 EDT    4.61   5.14    7  155    9  76.3  79.2 1013.1 -9.9 -9.999 -99.9 -99.99 -9.99
2019/07/18 09:48 EDT    4.60   5.12    7  151    9  75.9  79.2 1013.1 -9.9 -9.999 -99.9 -99.99 -9.99
2019/07/18 09:54 EDT    4.59   5.16    7  148    9  76.3  79.2 1013.1 -9.9 -9.999 -99.9 -99.99 -9.99
2019/07/18 10:00 EDT    4.57   5.15    7  161    9  76.3  79.2 1013.1 -9.9 -9.999 -99.9 -99.99 -9.99
2019/07/18 10:06 EDT    4.55   5.12    8  155    9  76.3  79.2 1013.1 -9.9 -9.999 -99.9 -99.99 -9.99
2019/07/18 10:12 EDT    4.52   5.10    7  158    8  76.3  79.2 1013.1 -9.9 -9.999 -99.9 -99.99 -9.99
2019/07/18 10:18 EDT    4.48   5.10    5  140    8  76.6  79.2 1013.0 -9.9 -9.999 -99.9 -99.99 -9.99
2019/07/18 10:24 EDT    4.44   5.08    7  167    8  77.0  79.2 1013.0 -9.9 -9.999 -99.9 -99.99 -9.99
2019/07/18 10:30 EDT    4.39   5.04    5  148    8  77.0  79.2 1012.9 -9.9 -9.999 -99.9 -99.99 -9.99
2019/07/18 10:36 EDT    4.34   5.04    5  152    6  77.4  79.2 1012.9 -9.9 -9.999 -99.9 -99.99 -9.99
2019/07/18 10:42 EDT    4.28   4.96    5  115    7  77.2  79.0 1012.8 -9.9 -9.999 -99.9 -99.99 -9.99
2019/07/18 10:48 EDT    4.22   4.93    4  139    6  77.7  79.0 1012.7 -9.9 -9.999 -99.9 -99.99 -9.99
2019/07/18 10:54 EDT    4.15   4.91    4  136    6  78.1  79.0 1012.7 -9.9 -9.999 -99.9 -99.99 -9.99
2019/07/18 11:00 EDT    4.07   4.82    4  130    5  78.1  79.0 1012.7 -9.9 -9.999 -99.9 -99.99 -9.99
2019/07/18 11:06 EDT    4.00   4.73    3  128    5  78.3  79.0 1012.8 -9.9 -9.999 -99.9 -99.99 -9.99
2019/07/18 11:12 EDT    3.92   4.69    3  119    5  78.8  79.0 1012.8 -9.9 -9.999 -99.9 -99.99 -9.99
2019/07/18 11:18 EDT    3.83   4.60    4  170    5  78.4  79.0 1012.7 -9.9 -9.999 -99.9 -99.99 -9.99
2019/07/18 11:24 EDT    3.75   4.47    4  121    6  77.7  79.0 1012.8 -9.9 -9.999 -99.9 -99.99 -9.99
2019/07/18 11:30 EDT    3.66   4.36    5  106    6  78.1  79.0 1012.7 -9.9 -9.999 -99.9 -99.99 -9.99
2019/07/18 11:36 EDT    3.57   4.26    4  101    6  78.6  79.0 1012.6 -9.9 -9.999 -99.9 -99.99 -9.99
2019/07/18 11:42 EDT    3.47   4.16    3  114    6  78.6  78.8 1012.5 -9.9 -9.999 -99.9 -99.99 -9.99
2019/07/18 11:48 EDT    3.38   4.03    4  105    6  79.0  78.8 1012.5 -9.9 -9.999 -99.9 -99.99 -9.99
2019/07/18 11:54 EDT    3.28   3.90    3   87    6  79.0  78.6 1012.5 -9.9 -9.999 -99.9 -99.99 -9.99
2019/07/18 12:00 EDT    3.19   3.82    3  105    5  79.0  78.6 1012.5 -9.9 -9.999 -99.9 -99.99 -9.99
2019/07/18 12:06 EDT    3.09   3.71    4   92    6  79.2  78.6 1012.5 -9.9 -9.999 -99.9 -99.99 -9.99
2019/07/18 12:12 EDT    2.99   3.58    4  106    5  79.2  78.6 1012.5 -9.9 -9.999 -99.9 -99.99 -9.99
2019/07/18 12:18 EDT    2.89   3.48    3   87    6  79.3  78.6 1012.5 -9.9 -9.999 -99.9 -99.99 -9.99
2019/07/18 12:24 EDT    2.80   3.38    4   64    6  79.9  78.6 1012.5 -9.9 -9.999 -99.9 -99.99 -9.99
2019/07/18 12:30 EDT    2.70   3.26    5   71    7  79.3  78.6 1012.5 -9.9 -9.999 -99.9 -99.99 -9.99
2019/07/18 12:36 EDT    2.60   3.16    3   89    7  78.8  78.6 1012.5 -9.9 -9.999 -99.9 -99.99 -9.99
2019/07/18 12:42 EDT    2.51   3.06    4   86    6  79.3  78.6 1012.5 -9.9 -9.999 -99.9 -99.99 -9.99
2019/07/18 12:48 EDT    2.41   2.92    4   74    6  79.2  78.8 1012.4 -9.9 -9.999 -99.9 -99.99 -9.99
2019/07/18 12:54 EDT    2.32   2.80    5   74    7  79.3  78.8 1012.4 -9.9 -9.999 -99.9 -99.99 -9.99
2019/07/18 13:00 EDT    2.22   2.68    6   85    8  79.0  78.8 1012.4 -9.9 -9.999 -99.9 -99.99 -9.99
2019/07/18 13:06 EDT    2.13   2.60    6   84    8  78.6  79.0 1012.3 -9.9 -9.999 -99.9 -99.99 -9.99
2019/07/18 13:12 EDT    2.04   2.49    7   80    9  78.6  79.0 1012.3 -9.9 -9.999 -99.9 -99.99 -9.99
2019/07/18 13:18 EDT    1.95   2.39    6   73    8  78.6  79.0 1012.3 -9.9 -9.999 -99.9 -99.99 -9.99
2019/07/18 13:24 EDT    1.86   2.30    6   80    8  79.2  79.0 1012.3 -9.9 -9.999 -99.9 -99.99 -9.99
2019/07/18 13:30 EDT    1.77   2.22    6   78    8  78.6  79.0 1012.3 -9.9 -9.999 -99.9 -99.99 -9.99
2019/07/18 13:36 EDT    1.68   2.11    6   85    8  78.6  79.0 1012.3 -9.9 -9.999 -99.9 -99.99 -9.99
2019/07/18 13:42 EDT    1.60   2.04    6   90    8  78.3  78.6 1012.1 -9.9 -9.999 -99.9 -99.99 -9.99
2019/07/18 13:48 EDT    1.52   1.95    6   86    9  78.3  78.4 1011.9 -9.9 -9.999 -99.9 -99.99 -9.99
2019/07/18 13:54 EDT    1.43   1.89    6   65    9  78.3  78.4 1012.0 -9.9 -9.999 -99.9 -99.99 -9.99
2019/07/18 14:00 EDT    1.35   1.78    6   89    8  78.4  78.6 1012.0 -9.9 -9.999 -99.9 -99.99 -9.99
2019/07/18 14:06 EDT    1.27   1.71    6   71    8  78.3  78.6 1011.9 -9.9 -9.999 -99.9 -99.99 -9.99
2019/07/18 14:12 EDT    1.20   1.66    6   80    9  78.1  78.8 1011.9 -9.9 -9.999 -99.9 -99.99 -9.99
2019/07/18 14:18 EDT    1.12   1.60    6  103    8  77.7  79.0 1011.9 -9.9 -9.999 -99.9 -99.99 -9.99
2019/07/18 14:24 EDT    1.05   1.51    7   91    9  78.1  79.2 1011.9 -9.9 -9.999 -99.9 -99.99 -9.99
2019/07/18 14:30 EDT    0.98   1.45    7  112   10  77.9  79.2 1011.8 -9.9 -9.999 -99.9 -99.99 -9.99
2019/07/18 14:36 EDT    0.92   1.40    8  110   10  77.9  79.2 1011.8 -9.9 -9.999 -99.9 -99.99 -9.99
2019/07/18 14:42 EDT    0.86   1.33    7   95   10  78.1  79.2 1011.7 -9.9 -9.999 -99.9 -99.99 -9.99
2019/07/18 14:48 EDT    0.80   1.27    9   94   10  77.7  79.3 1011.5 -9.9 -9.999 -99.9 -99.99 -9.99
2019/07/18 14:54 EDT    0.75   1.23    8   97   10  77.7  79.3 1011.5 -9.9 -9.999 -99.9 -99.99 -9.99
2019/07/18 15:00 EDT    0.70   1.17    8   96   11  78.1  79.5 1011.5 -9.9 -9.999 -99.9 -99.99 -9.99
2019/07/18 15:06 EDT    0.65   1.13    7   96   11  78.1  79.5 1011.5 -9.9 -9.999 -99.9 -99.99 -9.99
2019/07/18 15:12 EDT    0.61   1.08    8  103   11  77.9  79.5 1011.6 -9.9 -9.999 -99.9 -99.99 -9.99
2019/07/18 15:18 EDT    0.58   1.06    8  104   10  77.7  79.5 1011.8 -9.9 -9.999 -99.9 -99.99 -9.99
2019/07/18 15:24 EDT    0.55   1.05    7  106   10  78.3  79.3 1011.7 -9.9 -9.999 -99.9 -99.99 -9.99
2019/07/18 15:30 EDT    0.53   1.03    9   94   11  78.6  79.2 1011.7 -9.9 -9.999 -99.9 -99.99 -9.99
2019/07/18 15:36 EDT    0.52   1.00    9   99   11  77.9  79.2 1011.5 -9.9 -9.999 -99.9 -99.99 -9.99
2019/07/18 15:42 EDT    0.51   1.02   10  103   12  77.7  78.8 1011.3 -9.9 -9.999 -99.9 -99.99 -9.99
2019/07/18 15:48 EDT    0.51   1.03    8  113   12  77.7  78.8 1011.4 -9.9 -9.999 -99.9 -99.99 -9.99
2019/07/18 15:54 EDT    0.52   1.06    8  111   12  77.9  78.4 1011.4 -9.9 -9.999 -99.9 -99.99 -9.99
2019/07/18 16:00 EDT    0.53   1.07    7  126   10  78.4  78.4 1011.7 -9.9 -9.999 -99.9 -99.99 -9.99
2019/07/18 16:06 EDT    0.55   1.12    6  119    8  78.3  78.3 1011.8 -9.9 -9.999 -99.9 -99.99 -9.99
2019/07/18 16:12 EDT    0.58   1.14    7  114   10  78.6  78.3 1011.8 -9.9 -9.999 -99.9 -99.99 -9.99
2019/07/18 16:18 EDT    0.62   1.17    8  121   10  78.8  78.3 1011.3 -9.9 -9.999 -99.9 -99.99 -9.99
2019/07/18 16:24 EDT    0.67   1.20    9  120   11  78.8  78.3 1011.3 -9.9 -9.999 -99.9 -99.99 -9.99
2019/07/18 16:30 EDT    0.72   1.27    8  125   11  78.8  78.3 1011.2 -9.9 -9.999 -99.9 -99.99 -9.99
2019/07/18 16:36 EDT    0.78   1.32    7  132    9  79.2  78.3 1011.1 -9.9 -9.999 -99.9 -99.99 -9.99
2019/07/18 16:42 EDT    0.85   1.38    9  142   10  78.8  78.3 1011.1 -9.9 -9.999 -99.9 -99.99 -9.99
2019/07/18 16:48 EDT    0.92   1.45    9  157   12  78.6  78.3 1011.2 -9.9 -9.999 -99.9 -99.99 -9.99
2019/07/18 16:54 EDT    1.00   1.53    6  156   10  78.3  78.3 1011.5 -9.9 -9.999 -99.9 -99.99 -9.99
2019/07/18 17:00 EDT    1.09   1.65    6  158    9  78.6  78.1 1011.6 -9.9 -9.999 -99.9 -99.99 -9.99
2019/07/18 17:06 EDT    1.18   1.74    7  135    8  78.4  78.1 1011.5 -9.9 -9.999 -99.9 -99.99 -9.99
2019/07/18 17:12 EDT    1.28   1.84    5  148    7  78.4  78.1 1011.5 -9.9 -9.999 -99.9 -99.99 -9.99
2019/07/18 17:18 EDT    1.38   1.99    4  146    8  78.6  77.9 1011.6 -9.9 -9.999 -99.9 -99.99 -9.99
2019/07/18 17:24 EDT    1.49   2.06    4  136    5  78.6  77.7 1011.6 -9.9 -9.999 -99.9 -99.99 -9.99
2019/07/18 17:30 EDT    1.60   2.21    5  153    6  78.8  77.7 1011.6 -9.9 -9.999 -99.9 -99.99 -9.99
2019/07/18 17:36 EDT    1.71   2.36    4  138    6  78.8  77.5 1011.6 -9.9 -9.999 -99.9 -99.99 -9.99
2019/07/18 17:42 EDT    1.83   2.50    3  149    5  78.6  77.5 1011.6 -9.9 -9.999 -99.9 -99.99 -9.99
2019/07/18 17:48 EDT    1.95   2.62    4  161    5  78.6  77.5 1011.6 -9.9 -9.999 -99.9 -99.99 -9.99
2019/07/18 17:54 EDT    2.07   2.78    3  164    5  78.6  77.2 1011.6 -9.9 -9.999 -99.9 -99.99 -9.99
2019/07/18 18:00 EDT    2.20   2.96    4  172    4  78.4  77.2 1011.4 -9.9 -9.999 -99.9 -99.99 -9.99
2019/07/18 18:06 EDT    2.32   3.05    3  211    4  78.4  77.0 1011.4 -9.9 -9.999 -99.9 -99.99 -9.99
2019/07/18 18:12 EDT    2.45   3.17    6  287    7  78.4  76.8 1011.6 -9.9 -9.999 -99.9 -99.99 -9.99
2019/07/18 18:18 EDT    2.57   3.32    4  309    5  77.7  77.2 1011.6 -9.9 -9.999 -99.9 -99.99 -9.99
2019/07/18 18:24 EDT    2.70   3.45    4  342    5  77.9  76.8 1011.5 -9.9 -9.999 -99.9 -99.99 -9.99
2019/07/18 18:30 EDT    2.82   3.58    5  350    7  77.9  76.6 1011.5 -9.9 -9.999 -99.9 -99.99 -9.99
2019/07/18 18:36 EDT    2.95   3.66    3  347    6  77.0  75.6 1011.5 -9.9 -9.999 -99.9 -99.99 -9.99
2019/07/18 18:42 EDT    3.07   3.80    4    7    6  77.0  75.4 1011.5 -9.9 -9.999 -99.9 -99.99 -9.99
2019/07/18 18:48 EDT    3.19   3.95    4   36    7  76.8  75.0 1011.5 -9.9 -9.999 -99.9 -99.99 -9.99
2019/07/18 18:54 EDT    3.31   4.05    5   40    6  76.5  74.8 1011.6 -9.9 -9.999 -99.9 -99.99 -9.99
2019/07/18 19:00 EDT    3.43   4.18    6   42    7  75.9  74.8 1011.7 -9.9 -9.999 -99.9 -99.99 -9.99
2019/07/18 19:06 EDT    3.55   4.34    4   41    6  75.9  74.8 1011.8 -9.9 -9.999 -99.9 -99.99 -9.99
2019/07/18 19:12 EDT    3.66   4.45    4   39    6  76.1  75.0 1011.7 -9.9 -9.999 -99.9 -99.99 -9.99
2019/07/18 19:18 EDT    3.77   4.58    6   40    7  76.1  75.6 1011.7 -9.9 -9.999 -99.9 -99.99 -9.99
2019/07/18 19:24 EDT    3.88   4.72    4   22    7  75.7  76.3 1011.7 -9.9 -9.999 -99.9 -99.99 -9.99
2019/07/18 19:30 EDT    3.98   4.84    5   33    9  75.9  76.5 1011.7 -9.9 -9.999 -99.9 -99.99 -9.99
2019/07/18 19:36 EDT    4.08   4.93    8   45   12  75.7  76.5 1011.7 -9.9 -9.999 -99.9 -99.99 -9.99
2019/07/18 19:42 EDT    4.18   5.04    7   44   10  75.7  76.3 1011.6 -9.9 -9.999 -99.9 -99.99 -9.99
2019/07/18 19:48 EDT    4.28   5.17    6   27    9  74.5  75.7 1011.6 -9.9 -9.999 -99.9 -99.99 -9.99
2019/07/18 19:54 EDT    4.37   5.23    6   49   10  74.3  75.6 1011.8 -9.9 -9.999 -99.9 -99.99 -9.99
2019/07/18 20:00 EDT    4.46   5.30    7   62    9  74.1  75.6 1011.8 -9.9 -9.999 -99.9 -99.99 -9.99
2019/07/18 20:06 EDT    4.55   5.37    7   81   11  73.4  76.6 1011.8 -9.9 -9.999 -99.9 -99.99 -9.99
2019/07/18 20:12 EDT    4.63   5.43    6   80   11  73.0  76.5 1011.8 -9.9 -9.999 -99.9 -99.99 -9.99
2019/07/18 20:18 EDT    4.72   5.49    6   74   10  73.2  77.0 1011.8 -9.9 -9.999 -99.9 -99.99 -9.99
2019/07/18 20:24 EDT    4.79   5.51    7   58    9  73.2  77.2 1011.8 -9.9 -9.999 -99.9 -99.99 -9.99
2019/07/18 20:30 EDT    4.86   5.57    8   78   11  73.0  77.0 1011.7 -9.9 -9.999 -99.9 -99.99 -9.99
2019/07/18 20:36 EDT    4.93   5.59    6   88   11  72.9  76.8 1011.7 -9.9 -9.999 -99.9 -99.99 -9.99
2019/07/18 20:42 EDT    5.00   5.62    7   82   10  72.9  76.8 1011.7 -9.9 -9.999 -99.9 -99.99 -9.99
2019/07/18 20:48 EDT    5.06   5.66    6   73   10  72.9  76.8 1011.7 -9.9 -9.999 -99.9 -99.99 -9.99
2019/07/18 20:54 EDT    5.11   5.69    6   67    9  72.9  76.8 1011.8 -9.9 -9.999 -99.9 -99.99 -9.99
2019/07/18 21:00 EDT    5.17   5.73    5   62    9  72.9  76.6 1011.8 -9.9 -9.999 -99.9 -99.99 -9.99
2019/07/18 21:06 EDT    5.21   5.77    7   49   10  72.7  76.5 1011.9 -9.9 -9.999 -99.9 -99.99 -9.99
2019/07/18 21:12 EDT    5.25   5.77    8   45   10  72.7  76.6 1011.9 -9.9 -9.999 -99.9 -99.99 -9.99
2019/07/18 21:18 EDT    5.29   5.80    7   48   10  72.5  76.6 1012.0 -9.9 -9.999 -99.9 -99.99 -9.99
2019/07/18 21:24 EDT    5.32   5.79    8   40   12  72.3  76.3 1012.3 -9.9 -9.999 -99.9 -99.99 -9.99
2019/07/18 21:30 EDT    5.35   5.78   10   45   12  72.3  76.3 1012.3 -9.9 -9.999 -99.9 -99.99 -9.99
2019/07/18 21:36 EDT    5.37   5.77    7   47   13  72.3  76.3 1012.3 -9.9 -9.999 -99.9 -99.99 -9.99
2019/07/18 21:42 EDT    5.38   5.78    8   55   11  72.3  76.1 1012.3 -9.9 -9.999 -99.9 -99.99 -9.99
2019/07/18 21:48 EDT    5.39   5.74    9   51   11  72.1  75.7 1012.3 -9.9 -9.999 -99.9 -99.99 -9.99
2019/07/18 21:54 EDT    5.39   5.76    6   45   11  72.1  75.2 1012.4 -9.9 -9.999 -99.9 -99.99 -9.99
2019/07/18 22:00 EDT    5.38   5.75    7   50   10  72.0  74.5 1012.4 -9.9 -9.999 -99.9 -99.99 -9.99
2019/07/18 22:06 EDT    5.37   5.74    8   56   11  72.0  74.1 1012.4 -9.9 -9.999 -99.9 -99.99 -9.99
2019/07/18 22:12 EDT    5.35   5.75    6   66   11  71.8  73.9 1012.5 -9.9 -9.999 -99.9 -99.99 -9.99
2019/07/18 22:18 EDT    5.33   5.73    7   69   10  71.8  73.8 1012.8 -9.9 -9.999 -99.9 -99.99 -9.99
2019/07/18 22:24 EDT    5.29   5.71    6   70    9  71.4  73.6 1012.7 -9.9 -9.999 -99.9 -99.99 -9.99
2019/07/18 22:30 EDT    5.25   5.70    6   71    8  71.4  73.6 1012.8 -9.9 -9.999 -99.9 -99.99 -9.99
2019/07/18 22:36 EDT    5.21   5.69    5   68    8  71.4  73.6 1012.9 -9.9 -9.999 -99.9 -99.99 -9.99
2019/07/18 22:42 EDT    5.16   5.66    6   72   10  71.6  73.6 1013.0 -9.9 -9.999 -99.9 -99.99 -9.99
2019/07/18 22:48 EDT    5.10   5.63    6   78    8  71.4  73.6 1013.0 -9.9 -9.999 -99.9 -99.99 -9.99
2019/07/18 22:54 EDT    5.03   5.54    5   83    8  71.4  73.4 1012.9 -9.9 -9.999 -99.9 -99.99 -9.99
2019/07/18 23:00 EDT    4.96   5.55    5   50    8  71.4  73.4 1012.9 -9.9 -9.999 -99.9 -99.99 -9.99
2019/07/18 23:06 EDT    4.89   5.48    6   44    8  71.2  73.6 1013.0 -9.9 -9.999 -99.9 -99.99 -9.99
2019/07/18 23:12 EDT    4.81   5.43    5   45    8  71.2  73.8 1013.1 -9.9 -9.999 -99.9 -99.99 -9.99
2019/07/18 23:18 EDT    4.72   5.39    5   47    9  71.2  73.9 1013.1 -9.9 -9.999 -99.9 -99.99 -9.99
2019/07/18 23:24 EDT    4.63   5.31    7   58   10  71.2  73.8 1013.1 -9.9 -9.999 -99.9 -99.99 -9.99
2019/07/18 23:30 EDT    4.54   5.26    6   53    8  71.2  73.9 1013.1 -9.9 -9.999 -99.9 -99.99 -9.99
2019/07/18 23:36 EDT    4.44   5.16    5   48    8  71.2  74.3 1013.0 -9.9 -9.999 -99.9 -99.99 -9.99
2019/07/18 23:42 EDT    4.33   5.09    5   55    7  71.4  74.7 1012.9 -9.9 -9.999 -99.9 -99.99 -9.99
2019/07/18 23:48 EDT    4.23   4.98    4   50    8  71.4  74.5 1013.0 -9.9 -9.999 -99.9 -99.99 -9.99
2019/07/18 23:54 EDT    4.12   4.90    5   44    7  71.4  74.5 1012.9 -9.9 -9.999 -99.9 -99.99 -9.99
2019/07/19 00:00 EDT    4.01   4.75    6   43    7  71.4  74.3 1012.8 -9.9 -9.999 -99.9 -99.99 -9.99
2019/07/19 00:06 EDT    3.90   4.65    5   36    8  71.4  74.3 1012.7 -9.9 -9.999 -99.9 -99.99 -9.99
2019/07/19 00:12 EDT    3.78   4.56    3   31    5  71.6  74.3 1012.8 -9.9 -9.999 -99.9 -99.99 -9.99
2019/07/19 00:18 EDT    3.66   4.42    5   26    7  71.4  74.3 1012.8 -9.9 -9.999 -99.9 -99.99 -9.99
2019/07/19 00:24 EDT    3.55   4.32    4   36    6  71.4  74.7 1012.7 -9.9 -9.999 -99.9 -99.99 -9.99
2019/07/19 00:30 EDT    3.43   4.20    5   48    7  71.2  74.7 1012.7 -9.9 -9.999 -99.9 -99.99 -9.99
2019/07/19 00:36 EDT    3.31   4.10    5   42    7  71.1  74.8 1012.6 -9.9 -9.999 -99.9 -99.99 -9.99
2019/07/19 00:42 EDT    3.19   3.99    5   44    7  71.2  74.8 1012.7 -9.9 -9.999 -99.9 -99.99 -9.99
2019/07/19 00:48 EDT    3.07   3.87    4   45    6  71.2  74.8 1012.6 -9.9 -9.999 -99.9 -99.99 -9.99
2019/07/19 00:54 EDT    2.95   3.77    4   44    5  71.2  74.8 1012.6 -9.9 -9.999 -99.9 -99.99 -9.99
2019/07/19 01:00 EDT    2.84   3.64    4   43    5  71.4  75.0 1012.8 -9.9 -9.999 -99.9 -99.99 -9.99
2019/07/19 01:06 EDT    2.72   3.52    4   44    6  71.2  75.2 1012.7 -9.9 -9.999 -99.9 -99.99 -9.99
2019/07/19 01:12 EDT    2.60   3.39    4   43    5  71.4  75.9 1012.8 -9.9 -9.999 -99.9 -99.99 -9.99
2019/07/19 01:18 EDT    2.48   3.28    4   41    5  71.4  76.5 1012.8 -9.9 -9.999 -99.9 -99.99 -9.99
2019/07/19 01:24 EDT    2.37   3.15    3   43    4  71.4  76.8 1012.7 -9.9 -9.999 -99.9 -99.99 -9.99
2019/07/19 01:30 EDT    2.25 -99.99 -999 -999 -999 -99.9 -99.9 -999.9 -9.9 -9.999 -99.9 -99.99 -9.99
2019/07/19 01:36 EDT    2.14 -99.99 -999 -999 -999 -99.9 -99.9 -999.9 -9.9 -9.999 -99.9 -99.99 -9.99

Revised: 08/08/2018
NOAA / National Ocean Service
Web site owner: Center for Operational Oceanographic Products and Services